Time,TemperatureF,DewpointF,PressureIn,WindDirection,WindDirectionDegrees,WindSpeedMPH,WindSpeedGustMPH,Humidity,HourlyPrecipIn,Conditions,Clouds,dailyrainin,SoftwareType,DateUTC
2013-02-13 00:03:00,50.1,33.1,29.99,NW,320,10.0,13.0,52,0.00,,,0.00,Wunderground v.1.15,2013-02-13 06:03:00,
2013-02-13 00:04:00,49.9,33.0,29.99,North,349,10.0,13.0,52,0.00,,,0.00,Wunderground v.1.15,2013-02-13 06:04:00,
2013-02-13 00:05:00,49.8,32.9,29.99,NNW,342,10.0,14.0,52,0.00,,,0.00,Wunderground v.1.15,2013-02-13 06:05:00,
2013-02-13 00:08:00,49.5,32.6,29.99,North,0,11.0,14.0,52,0.00,,,0.00,Wunderground v.1.15,2013-02-13 06:08:00,
2013-02-13 00:09:00,49.5,32.6,29.99,NW,311,10.0,14.0,52,0.00,,,0.00,Wunderground v.1.15,2013-02-13 06:09:00,
2013-02-13 00:11:00,49.4,33.0,29.99,North,0,10.0,10.0,53,0.00,,,0.00,Wunderground v.1.15,2013-02-13 06:11:00,
2013-02-13 00:14:00,49.2,32.8,29.99,WNW,295,9.0,14.0,53,0.00,,,0.00,Wunderground v.1.15,2013-02-13 06:14:00,
2013-02-13 00:15:00,49.1,32.7,29.99,WNW,302,10.0,19.0,53,0.00,,,0.00,Wunderground v.1.15,2013-02-13 06:15:00,
2013-02-13 00:17:00,48.9,32.5,30.00,NNW,330,10.0,19.0,53,0.00,,,0.00,Wunderground v.1.15,2013-02-13 06:17:00,
2013-02-13 00:21:00,48.5,31.7,30.00,NNW,335,12.0,16.0,52,0.00,,,0.00,Wunderground v.1.15,2013-02-13 06:21:00,
2013-02-13 00:24:00,48.2,31.9,30.00,NW,308,14.0,19.0,53,0.00,,,0.00,Wunderground v.1.15,2013-02-13 06:24:00,
2013-02-13 00:26:00,48.0,31.7,30.00,NW,326,14.0,19.0,53,0.00,,,0.00,Wunderground v.1.15,2013-02-13 06:26:00,
2013-02-13 00:27:00,47.9,32.0,30.00,NW,323,14.0,19.0,54,0.00,,,0.00,Wunderground v.1.15,2013-02-13 06:27:00,
2013-02-13 00:29:00,47.9,32.0,30.00,North,0,13.0,19.0,54,0.00,,,0.00,Wunderground v.1.15,2013-02-13 06:29:00,
2013-02-13 00:31:00,47.7,31.9,30.01,NNW,332,13.0,13.0,54,0.00,,,0.00,Wunderground v.1.15,2013-02-13 06:31:00,
2013-02-13 00:32:00,47.7,31.9,30.01,NNW,339,13.0,13.0,54,0.00,,,0.00,Wunderground v.1.15,2013-02-13 06:32:00,
2013-02-13 00:34:00,47.6,31.8,30.01,North,359,12.0,13.0,54,0.00,,,0.00,Wunderground v.1.15,2013-02-13 06:34:00,
2013-02-13 00:38:00,47.4,32.0,30.01,NNW,346,11.0,15.0,55,0.00,,,0.00,Wunderground v.1.15,2013-02-13 06:38:00,
2013-02-13 00:39:00,47.4,32.0,30.01,NW,313,11.0,15.0,55,0.00,,,0.00,Wunderground v.1.15,2013-02-13 06:39:00,
2013-02-13 00:42:00,47.3,31.9,30.01,North,3,10.0,12.0,55,0.00,,,0.00,Wunderground v.1.15,2013-02-13 06:42:00,
2013-02-13 00:45:00,47.1,31.7,30.01,NW,316,10.0,17.0,55,0.00,,,0.00,Wunderground v.1.15,2013-02-13 06:45:00,
2013-02-13 00:46:00,47.1,31.7,30.00,NW,306,9.0,17.0,55,0.00,,,0.00,Wunderground v.1.15,2013-02-13 06:46:00,
2013-02-13 00:47:00,47.1,31.7,30.00,NW,313,10.0,17.0,55,0.00,,,0.00,Wunderground v.1.15,2013-02-13 06:47:00,
2013-02-13 00:49:00,47.0,31.7,30.00,NW,319,10.0,17.0,55,0.00,,,0.00,Wunderground v.1.15,2013-02-13 06:49:00,
2013-02-13 00:51:00,47.0,31.7,30.00,North,0,10.0,10.0,55,0.00,,,0.00,Wunderground v.1.15,2013-02-13 06:51:00,
2013-02-13 00:53:00,47.0,32.1,30.00,NNW,337,9.0,10.0,56,0.00,,,0.00,Wunderground v.1.15,2013-02-13 06:53:00,
2013-02-13 00:56:00,46.8,31.9,30.00,NNW,347,8.0,12.0,56,0.00,,,0.00,Wunderground v.1.15,2013-02-13 06:56:00,
2013-02-13 00:58:00,46.7,31.8,30.00,NNW,340,8.0,12.0,56,0.00,,,0.00,Wunderground v.1.15,2013-02-13 06:58:00,
2013-02-13 00:59:00,46.7,31.8,30.00,NW,325,8.0,13.0,56,0.00,,,0.00,Wunderground v.1.15,2013-02-13 06:59:00,
2013-02-13 01:03:00,46.5,31.6,30.00,North,0,8.0,9.0,56,0.00,,,0.00,Wunderground v.1.15,2013-02-13 07:03:00,
2013-02-13 01:04:00,46.5,31.6,30.00,NW,322,8.0,9.0,56,0.00,,,0.00,Wunderground v.1.15,2013-02-13 07:04:00,
2013-02-13 01:05:00,46.5,31.6,30.00,NNW,332,8.0,9.0,56,0.00,,,0.00,Wunderground v.1.15,2013-02-13 07:05:00,
2013-02-13 01:08:00,46.5,32.1,30.00,North,352,8.0,9.0,57,0.00,,,0.00,Wunderground v.1.15,2013-02-13 07:08:00,
2013-02-13 01:11:00,46.4,32.0,30.00,NNW,339,6.0,8.0,57,0.00,,,0.00,Wunderground v.1.15,2013-02-13 07:11:00,
2013-02-13 01:13:00,46.4,32.0,30.00,NNW,328,7.0,10.0,57,0.00,,,0.00,Wunderground v.1.15,2013-02-13 07:13:00,
2013-02-13 01:14:00,46.4,32.0,30.00,NW,323,7.0,10.0,57,0.00,,,0.00,Wunderground v.1.15,2013-02-13 07:14:00,
2013-02-13 01:16:00,46.2,31.8,29.99,North,350,7.0,10.0,57,0.00,,,0.00,Wunderground v.1.15,2013-02-13 07:16:00,
2013-02-13 01:18:00,46.2,31.8,29.99,North,350,7.0,10.0,57,0.00,,,0.00,Wunderground v.1.15,2013-02-13 07:18:00,
2013-02-13 01:19:00,46.2,31.8,29.99,North,354,7.0,10.0,57,0.00,,,0.00,Wunderground v.1.15,2013-02-13 07:19:00,
2013-02-13 01:21:00,46.2,31.8,29.99,NW,320,8.0,11.0,57,0.00,,,0.00,Wunderground v.1.15,2013-02-13 07:21:00,
2013-02-13 01:22:00,46.1,31.7,29.99,North,6,8.0,12.0,57,0.00,,,0.00,Wunderground v.1.15,2013-02-13 07:22:00,
2013-02-13 01:24:00,46.1,31.7,29.99,NW,309,8.0,12.0,57,0.00,,,0.00,Wunderground v.1.15,2013-02-13 07:24:00,
2013-02-13 01:27:00,46.1,32.1,29.99,North,352,9.0,12.0,58,0.00,,,0.00,Wunderground v.1.15,2013-02-13 07:27:00,
2013-02-13 01:29:00,46.0,32.0,29.99,NNW,340,10.0,16.0,58,0.00,,,0.00,Wunderground v.1.15,2013-02-13 07:29:00,
2013-02-13 01:30:00,46.0,32.0,29.99,WNW,301,9.0,16.0,58,0.00,,,0.00,Wunderground v.1.15,2013-02-13 07:30:00,
2013-02-13 01:32:00,46.0,32.0,29.99,NW,326,9.0,9.0,58,0.00,,,0.00,Wunderground v.1.15,2013-02-13 07:32:00,
2013-02-13 01:33:00,46.0,32.0,29.99,NW,322,9.0,13.0,58,0.00,,,0.00,Wunderground v.1.15,2013-02-13 07:33:00,
2013-02-13 01:38:00,45.8,31.9,29.99,NW,322,9.0,13.0,58,0.00,,,0.00,Wunderground v.1.15,2013-02-13 07:38:00,
2013-02-13 01:40:00,45.7,31.8,29.99,North,359,10.0,13.0,58,0.00,,,0.00,Wunderground v.1.15,2013-02-13 07:40:00,
2013-02-13 01:42:00,45.7,31.8,29.99,NW,319,10.0,14.0,58,0.00,,,0.00,Wunderground v.1.15,2013-02-13 07:42:00,
2013-02-13 01:43:00,45.7,31.8,29.99,NNW,339,10.0,14.0,58,0.00,,,0.00,Wunderground v.1.15,2013-02-13 07:43:00,
2013-02-13 01:44:00,45.7,31.8,29.99,NNW,339,9.0,14.0,58,0.00,,,0.00,Wunderground v.1.15,2013-02-13 07:44:00,
2013-02-13 01:47:00,45.7,31.8,29.99,WNW,299,9.0,14.0,58,0.00,,,0.00,Wunderground v.1.15,2013-02-13 07:47:00,
2013-02-13 01:50:00,45.5,31.6,29.99,NW,318,9.0,14.0,58,0.00,,,0.00,Wunderground v.1.15,2013-02-13 07:50:00,
2013-02-13 01:51:00,45.5,31.6,29.99,NNW,335,9.0,11.0,58,0.00,,,0.00,Wunderground v.1.15,2013-02-13 07:51:00,
2013-02-13 01:54:00,45.4,31.9,29.99,NNW,335,9.0,11.0,59,0.00,,,0.00,Wunderground v.1.15,2013-02-13 07:54:00,
2013-02-13 01:56:00,45.4,31.9,29.99,North,357,10.0,11.0,59,0.00,,,0.00,Wunderground v.1.15,2013-02-13 07:56:00,
2013-02-13 01:57:00,45.4,31.9,29.99,North,354,10.0,11.0,59,0.00,,,0.00,Wunderground v.1.15,2013-02-13 07:57:00,
2013-02-13 01:59:00,45.4,31.9,29.99,NNW,333,10.0,11.0,59,0.00,,,0.00,Wunderground v.1.15,2013-02-13 07:59:00,
2013-02-13 02:01:00,45.2,31.7,30.00,NNW,346,10.0,12.0,59,0.00,,,0.00,Wunderground v.1.15,2013-02-13 08:01:00,
2013-02-13 02:04:00,45.2,31.7,30.00,North,350,9.0,12.0,59,0.00,,,0.00,Wunderground v.1.15,2013-02-13 08:04:00,
2013-02-13 02:05:00,45.2,31.7,30.00,NW,326,9.0,12.0,59,0.00,,,0.00,Wunderground v.1.15,2013-02-13 08:05:00,
2013-02-13 02:07:00,45.1,31.6,30.00,NW,319,9.0,12.0,59,0.00,,,0.00,Wunderground v.1.15,2013-02-13 08:07:00,
2013-02-13 02:08:00,45.1,31.6,30.00,North,11,9.0,12.0,59,0.00,,,0.00,Wunderground v.1.15,2013-02-13 08:08:00,
2013-02-13 02:11:00,45.1,31.6,30.00,NW,304,9.0,9.0,59,0.00,,,0.00,Wunderground v.1.15,2013-02-13 08:11:00,
2013-02-13 02:12:00,45.1,31.6,30.00,NNW,343,9.0,9.0,59,0.00,,,0.00,Wunderground v.1.15,2013-02-13 08:12:00,
2013-02-13 02:16:00,45.1,32.0,30.00,NNW,344,9.0,12.0,60,0.00,,,0.00,Wunderground v.1.15,2013-02-13 08:16:00,
2013-02-13 02:17:00,45.1,32.0,30.00,North,356,9.0,12.0,60,0.00,,,0.00,Wunderground v.1.15,2013-02-13 08:17:00,
2013-02-13 02:21:00,45.1,32.0,30.00,North,352,8.0,12.0,60,0.00,,,0.00,Wunderground v.1.15,2013-02-13 08:21:00,
2013-02-13 02:23:00,44.9,31.8,30.00,NW,323,8.0,12.0,60,0.00,,,0.00,Wunderground v.1.15,2013-02-13 08:23:00,
2013-02-13 02:25:00,44.9,31.8,30.00,North,356,8.0,12.0,60,0.00,,,0.00,Wunderground v.1.15,2013-02-13 08:25:00,
2013-02-13 02:28:00,44.9,31.8,30.00,NNW,335,7.0,13.0,60,0.00,,,0.00,Wunderground v.1.15,2013-02-13 08:28:00,
2013-02-13 02:29:00,44.9,31.8,30.00,NNW,339,8.0,13.0,60,0.00,,,0.00,Wunderground v.1.15,2013-02-13 08:29:00,
2013-02-13 02:30:00,44.9,31.8,30.00,North,356,8.0,13.0,60,0.00,,,0.00,Wunderground v.1.15,2013-02-13 08:30:00,
2013-02-13 02:31:00,44.9,31.8,30.00,North,4,8.0,8.0,60,0.00,,,0.00,Wunderground v.1.15,2013-02-13 08:31:00,
2013-02-13 02:35:00,44.8,31.8,30.00,NW,320,9.0,10.0,60,0.00,,,0.00,Wunderground v.1.15,2013-02-13 08:35:00,
2013-02-13 02:37:00,44.8,31.8,30.00,North,0,9.0,10.0,60,0.00,,,0.00,Wunderground v.1.15,2013-02-13 08:37:00,
2013-02-13 02:38:00,44.6,31.6,30.00,NNW,328,9.0,10.0,60,0.00,,,0.00,Wunderground v.1.15,2013-02-13 08:38:00,
2013-02-13 02:41:00,44.6,31.6,30.00,NNW,339,9.0,10.0,60,0.00,,,0.00,Wunderground v.1.15,2013-02-13 08:41:00,
2013-02-13 02:43:00,44.6,32.0,30.00,North,354,9.0,13.0,61,0.00,,,0.00,Wunderground v.1.15,2013-02-13 08:43:00,
2013-02-13 02:45:00,44.5,31.9,30.00,NNW,328,8.0,13.0,61,0.00,,,0.00,Wunderground v.1.15,2013-02-13 08:45:00,
2013-02-13 02:48:00,44.5,31.9,29.99,NNW,336,8.0,13.0,61,0.00,,,0.00,Wunderground v.1.15,2013-02-13 08:48:00,
2013-02-13 02:49:00,44.5,31.9,29.99,North,356,8.0,13.0,61,0.00,,,0.00,Wunderground v.1.15,2013-02-13 08:49:00,
2013-02-13 02:51:00,44.5,31.9,29.99,NW,326,8.0,8.0,61,0.00,,,0.00,Wunderground v.1.15,2013-02-13 08:51:00,
2013-02-13 02:52:00,44.5,31.9,29.99,NNW,347,8.0,8.0,61,0.00,,,0.00,Wunderground v.1.15,2013-02-13 08:52:00,
2013-02-13 02:55:00,44.3,31.7,29.99,North,354,7.0,10.0,61,0.00,,,0.00,Wunderground v.1.15,2013-02-13 08:55:00,
2013-02-13 02:56:00,44.3,31.7,29.99,North,349,7.0,10.0,61,0.00,,,0.00,Wunderground v.1.15,2013-02-13 08:56:00,
2013-02-13 02:57:00,44.3,31.7,29.99,NNE,24,7.0,10.0,61,0.00,,,0.00,Wunderground v.1.15,2013-02-13 08:57:00,
2013-02-13 03:02:00,44.2,32.0,29.99,NNW,346,7.0,8.0,62,0.00,,,0.00,Wunderground v.1.15,2013-02-13 09:02:00,
2013-02-13 03:03:00,44.2,32.0,29.99,NNW,328,7.0,12.0,62,0.00,,,0.00,Wunderground v.1.15,2013-02-13 09:03:00,
2013-02-13 03:04:00,44.1,31.9,29.99,NNW,333,8.0,12.0,62,0.00,,,0.00,Wunderground v.1.15,2013-02-13 09:04:00,
2013-02-13 03:08:00,44.1,31.9,29.99,NNW,336,6.0,12.0,62,0.00,,,0.00,Wunderground v.1.15,2013-02-13 09:08:00,
2013-02-13 03:09:00,44.1,31.9,29.99,NNW,333,7.0,12.0,62,0.00,,,0.00,Wunderground v.1.15,2013-02-13 09:09:00,
2013-02-13 03:12:00,44.1,31.9,29.99,NNW,344,8.0,8.0,62,0.00,,,0.00,Wunderground v.1.15,2013-02-13 09:12:00,
2013-02-13 03:17:00,44.1,31.9,29.99,NNW,335,7.0,11.0,62,0.00,,,0.00,Wunderground v.1.15,2013-02-13 09:17:00,
2013-02-13 03:18:00,44.1,31.9,29.99,NNW,335,7.0,11.0,62,0.00,,,0.00,Wunderground v.1.15,2013-02-13 09:18:00,
2013-02-13 03:19:00,43.9,31.7,29.99,NNW,343,7.0,11.0,62,0.00,,,0.00,Wunderground v.1.15,2013-02-13 09:19:00,
2013-02-13 03:20:00,43.9,31.7,29.99,NNW,346,5.0,7.0,62,0.00,,,0.00,Wunderground v.1.15,2013-02-13 09:20:00,
2013-02-13 03:22:00,43.9,31.7,29.99,NNW,344,5.0,9.0,62,0.00,,,0.00,Wunderground v.1.15,2013-02-13 09:22:00,
2013-02-13 03:24:00,43.9,31.7,29.99,NW,315,5.0,9.0,62,0.00,,,0.00,Wunderground v.1.15,2013-02-13 09:24:00,
2013-02-13 03:27:00,43.9,31.7,29.99,North,0,5.0,9.0,62,0.00,,,0.00,Wunderground v.1.15,2013-02-13 09:27:00,
2013-02-13 03:29:00,43.9,31.7,29.99,WNW,302,6.0,9.0,62,0.00,,,0.00,Wunderground v.1.15,2013-02-13 09:29:00,
2013-02-13 03:30:00,43.8,31.6,29.99,NW,322,6.0,7.0,62,0.00,,,0.00,Wunderground v.1.15,2013-02-13 09:30:00,
2013-02-13 03:33:00,43.8,31.6,29.99,NW,308,5.0,7.0,62,0.00,,,0.00,Wunderground v.1.15,2013-02-13 09:33:00,
2013-02-13 03:35:00,43.8,31.6,29.99,NNW,328,6.0,7.0,62,0.00,,,0.00,Wunderground v.1.15,2013-02-13 09:35:00,
2013-02-13 03:40:00,43.8,31.6,29.99,North,0,6.0,6.0,62,0.00,,,0.00,Wunderground v.1.15,2013-02-13 09:40:00,
2013-02-13 03:41:00,43.8,31.6,29.99,NNE,14,6.0,6.0,62,0.00,,,0.00,Wunderground v.1.15,2013-02-13 09:41:00,
2013-02-13 03:45:00,43.8,31.6,29.99,NW,318,6.0,6.0,62,0.00,,,0.00,Wunderground v.1.15,2013-02-13 09:45:00,
2013-02-13 03:46:00,43.6,31.4,29.99,NNW,330,6.0,6.0,62,0.00,,,0.00,Wunderground v.1.15,2013-02-13 09:46:00,
2013-02-13 03:48:00,43.6,31.8,29.99,North,7,6.0,6.0,63,0.00,,,0.00,Wunderground v.1.15,2013-02-13 09:48:00,
2013-02-13 03:52:00,43.6,31.8,29.99,NNW,336,5.0,7.0,63,0.00,,,0.00,Wunderground v.1.15,2013-02-13 09:52:00,
2013-02-13 03:54:00,43.5,31.7,29.99,North,350,6.0,7.0,63,0.00,,,0.00,Wunderground v.1.15,2013-02-13 09:54:00,
2013-02-13 03:55:00,43.5,31.7,29.99,NW,323,6.0,7.0,63,0.00,,,0.00,Wunderground v.1.15,2013-02-13 09:55:00,
2013-02-13 03:57:00,43.5,31.7,29.99,North,359,6.0,10.0,63,0.00,,,0.00,Wunderground v.1.15,2013-02-13 09:57:00,
2013-02-13 04:00:00,43.5,31.7,29.99,NNW,330,6.0,7.0,63,0.00,,,0.00,Wunderground v.1.15,2013-02-13 10:00:00,
2013-02-13 04:01:00,43.3,31.5,29.98,NW,323,6.0,7.0,63,0.00,,,0.00,Wunderground v.1.15,2013-02-13 10:01:00,
2013-02-13 04:06:00,43.3,31.5,29.98,NNW,328,6.0,7.0,63,0.00,,,0.00,Wunderground v.1.15,2013-02-13 10:06:00,
2013-02-13 04:08:00,43.3,31.5,29.98,North,7,5.0,7.0,63,0.00,,,0.00,Wunderground v.1.15,2013-02-13 10:08:00,
2013-02-13 04:11:00,43.2,31.4,29.98,North,357,5.0,5.0,63,0.00,,,0.00,Wunderground v.1.15,2013-02-13 10:11:00,
2013-02-13 04:13:00,43.2,31.4,29.98,NNW,339,5.0,5.0,63,0.00,,,0.00,Wunderground v.1.15,2013-02-13 10:13:00,
2013-02-13 04:14:00,43.2,31.4,29.98,NNW,337,4.0,5.0,63,0.00,,,0.00,Wunderground v.1.15,2013-02-13 10:14:00,
2013-02-13 04:20:00,43.1,31.4,29.99,NW,318,3.0,5.0,63,0.00,,,0.00,Wunderground v.1.15,2013-02-13 10:20:00,
2013-02-13 04:21:00,43.1,31.4,29.99,NW,318,3.0,3.0,63,0.00,,,0.00,Wunderground v.1.15,2013-02-13 10:21:00,
2013-02-13 04:26:00,42.9,31.6,29.99,North,0,3.0,5.0,64,0.00,,,0.00,Wunderground v.1.15,2013-02-13 10:26:00,
2013-02-13 04:28:00,42.9,31.6,29.99,NNW,330,3.0,6.0,64,0.00,,,0.00,Wunderground v.1.15,2013-02-13 10:28:00,
2013-02-13 04:30:00,42.9,31.6,29.99,NNW,337,3.0,3.0,64,0.00,,,0.00,Wunderground v.1.15,2013-02-13 10:30:00,
2013-02-13 04:31:00,42.9,31.6,29.99,North,0,3.0,3.0,64,0.00,,,0.00,Wunderground v.1.15,2013-02-13 10:31:00,
2013-02-13 04:36:00,42.8,31.5,29.99,North,0,3.0,5.0,64,0.00,,,0.00,Wunderground v.1.15,2013-02-13 10:36:00,
2013-02-13 04:37:00,42.8,31.5,29.99,North,0,3.0,5.0,64,0.00,,,0.00,Wunderground v.1.15,2013-02-13 10:37:00,
2013-02-13 04:40:00,42.8,31.8,29.99,North,356,3.0,3.0,65,0.00,,,0.00,Wunderground v.1.15,2013-02-13 10:40:00,
2013-02-13 04:44:00,42.6,31.7,29.99,North,350,3.0,6.0,65,0.00,,,0.00,Wunderground v.1.15,2013-02-13 10:44:00,
2013-02-13 04:45:00,42.6,31.7,29.99,North,350,3.0,6.0,65,0.00,,,0.00,Wunderground v.1.15,2013-02-13 10:45:00,
2013-02-13 04:46:00,42.6,31.7,30.00,NNW,347,2.0,6.0,65,0.00,,,0.00,Wunderground v.1.15,2013-02-13 10:46:00,
2013-02-13 04:50:00,42.5,31.6,30.00,NNW,347,2.0,2.0,65,0.00,,,0.00,Wunderground v.1.15,2013-02-13 10:50:00,
2013-02-13 04:51:00,42.5,31.6,30.00,NNW,347,2.0,2.0,65,0.00,,,0.00,Wunderground v.1.15,2013-02-13 10:51:00,
2013-02-13 04:52:00,42.5,31.6,30.00,NNW,347,2.0,2.0,65,0.00,,,0.00,Wunderground v.1.15,2013-02-13 10:52:00,
2013-02-13 04:56:00,42.5,31.6,30.00,NNW,343,2.0,3.0,65,0.00,,,0.00,Wunderground v.1.15,2013-02-13 10:56:00,
2013-02-13 04:57:00,42.5,31.6,30.00,NNW,343,2.0,6.0,65,0.00,,,0.00,Wunderground v.1.15,2013-02-13 10:57:00,
2013-02-13 05:01:00,42.5,31.6,30.00,North,3,2.0,2.0,65,0.00,,,0.00,Wunderground v.1.15,2013-02-13 11:01:00,
2013-02-13 05:02:00,42.5,31.6,30.00,North,0,2.0,2.0,65,0.00,,,0.00,Wunderground v.1.15,2013-02-13 11:02:00,
2013-02-13 05:05:00,42.5,31.6,30.00,North,0,3.0,3.0,65,0.00,,,0.00,Wunderground v.1.15,2013-02-13 11:05:00,
2013-02-13 05:06:00,42.5,31.6,30.00,North,0,3.0,3.0,65,0.00,,,0.00,Wunderground v.1.15,2013-02-13 11:06:00,
2013-02-13 05:07:00,42.5,31.6,30.00,North,0,3.0,3.0,65,0.00,,,0.00,Wunderground v.1.15,2013-02-13 11:07:00,
2013-02-13 05:10:00,42.3,31.4,30.00,North,3,2.0,3.0,65,0.00,,,0.00,Wunderground v.1.15,2013-02-13 11:10:00,
2013-02-13 05:11:00,42.3,31.4,30.00,North,3,2.0,3.0,65,0.00,,,0.00,Wunderground v.1.15,2013-02-13 11:11:00,
2013-02-13 05:14:00,42.3,31.4,30.00,North,0,2.0,3.0,65,0.00,,,0.00,Wunderground v.1.15,2013-02-13 11:14:00,
2013-02-13 05:18:00,42.3,31.4,30.01,North,0,2.0,3.0,65,0.00,,,0.00,Wunderground v.1.15,2013-02-13 11:18:00,
2013-02-13 05:20:00,42.2,31.3,30.01,North,0,2.0,2.0,65,0.00,,,0.00,Wunderground v.1.15,2013-02-13 11:20:00,
2013-02-13 05:21:00,42.2,31.3,30.01,North,0,2.0,2.0,65,0.00,,,0.00,Wunderground v.1.15,2013-02-13 11:21:00,
2013-02-13 05:25:00,42.2,31.3,30.01,North,0,2.0,4.0,65,0.00,,,0.00,Wunderground v.1.15,2013-02-13 11:25:00,
2013-02-13 05:26:00,42.2,31.3,30.01,North,0,2.0,4.0,65,0.00,,,0.00,Wunderground v.1.15,2013-02-13 11:26:00,
2013-02-13 05:28:00,42.1,31.6,30.01,North,0,2.0,6.0,66,0.00,,,0.00,Wunderground v.1.15,2013-02-13 11:28:00,
2013-02-13 05:30:00,42.1,31.6,30.01,North,0,2.0,3.0,66,0.00,,,0.00,Wunderground v.1.15,2013-02-13 11:30:00,
2013-02-13 05:33:00,42.1,31.6,30.02,NNW,343,3.0,4.0,66,0.00,,,0.00,Wunderground v.1.15,2013-02-13 11:33:00,
2013-02-13 05:34:00,42.1,31.6,30.02,NNW,343,3.0,6.0,66,0.00,,,0.00,Wunderground v.1.15,2013-02-13 11:34:00,
2013-02-13 05:35:00,41.9,31.4,30.02,NNW,344,3.0,6.0,66,0.00,,,0.00,Wunderground v.1.15,2013-02-13 11:35:00,
2013-02-13 05:38:00,41.9,31.4,30.02,NNW,340,3.0,6.0,66,0.00,,,0.00,Wunderground v.1.15,2013-02-13 11:38:00,
2013-02-13 05:40:00,41.9,31.4,30.02,NNW,340,3.0,3.0,66,0.00,,,0.00,Wunderground v.1.15,2013-02-13 11:40:00,
2013-02-13 05:41:00,41.9,31.7,30.02,NNW,340,3.0,3.0,67,0.00,,,0.00,Wunderground v.1.15,2013-02-13 11:41:00,
2013-02-13 05:44:00,41.8,31.6,30.02,NW,326,3.0,5.0,67,0.00,,,0.00,Wunderground v.1.15,2013-02-13 11:44:00,
2013-02-13 05:46:00,41.8,31.6,30.02,NNW,337,3.0,5.0,67,0.00,,,0.00,Wunderground v.1.15,2013-02-13 11:46:00,
2013-02-13 05:51:00,41.6,31.4,30.02,NNW,329,4.0,4.0,67,0.00,,,0.00,Wunderground v.1.15,2013-02-13 11:51:00,
2013-02-13 05:52:00,41.6,31.4,30.02,NNW,339,4.0,4.0,67,0.00,,,0.00,Wunderground v.1.15,2013-02-13 11:52:00,
2013-02-13 05:53:00,41.6,31.4,30.02,NNW,339,4.0,4.0,67,0.00,,,0.00,Wunderground v.1.15,2013-02-13 11:53:00,
2013-02-13 05:56:00,41.6,31.4,30.02,NNW,339,4.0,4.0,67,0.00,,,0.00,Wunderground v.1.15,2013-02-13 11:56:00,
2013-02-13 05:58:00,41.5,31.4,30.02,NNW,332,3.0,5.0,67,0.00,,,0.00,Wunderground v.1.15,2013-02-13 11:58:00,
2013-02-13 06:01:00,41.5,31.7,30.02,NNW,347,3.0,5.0,68,0.00,,,0.00,Wunderground v.1.15,2013-02-13 12:01:00,
2013-02-13 06:02:00,41.5,31.7,30.02,North,353,3.0,5.0,68,0.00,,,0.00,Wunderground v.1.15,2013-02-13 12:02:00,
2013-02-13 06:04:00,41.5,31.7,30.02,NNW,336,4.0,5.0,68,0.00,,,0.00,Wunderground v.1.15,2013-02-13 12:04:00,
2013-02-13 06:07:00,41.5,31.7,30.02,NW,322,4.0,5.0,68,0.00,,,0.00,Wunderground v.1.15,2013-02-13 12:07:00,
2013-02-13 06:08:00,41.5,31.7,30.02,North,0,5.0,7.0,68,0.00,,,0.00,Wunderground v.1.15,2013-02-13 12:08:00,
2013-02-13 06:10:00,41.3,31.5,30.02,NW,322,5.0,5.0,68,0.00,,,0.00,Wunderground v.1.15,2013-02-13 12:10:00,
2013-02-13 06:12:00,41.3,31.5,30.02,NNW,343,5.0,5.0,68,0.00,,,0.00,Wunderground v.1.15,2013-02-13 12:12:00,
2013-02-13 06:14:00,41.3,31.5,30.02,NNW,344,5.0,5.0,68,0.00,,,0.00,Wunderground v.1.15,2013-02-13 12:14:00,
2013-02-13 06:18:00,41.3,31.5,30.03,NNW,347,5.0,10.0,68,0.00,,,0.00,Wunderground v.1.15,2013-02-13 12:18:00,
2013-02-13 06:21:00,41.3,31.5,30.03,NNW,333,5.0,6.0,68,0.00,,,0.00,Wunderground v.1.15,2013-02-13 12:21:00,
2013-02-13 06:22:00,41.3,31.5,30.03,NNW,332,5.0,6.0,68,0.00,,,0.00,Wunderground v.1.15,2013-02-13 12:22:00,
2013-02-13 06:23:00,41.3,31.5,30.03,NNW,332,5.0,6.0,68,0.00,,,0.00,Wunderground v.1.15,2013-02-13 12:23:00,
2013-02-13 06:24:00,41.3,31.5,30.03,North,352,5.0,8.0,68,0.00,,,0.00,Wunderground v.1.15,2013-02-13 12:24:00,
2013-02-13 06:28:00,41.3,31.5,30.03,North,356,5.0,9.0,68,0.00,,,0.00,Wunderground v.1.15,2013-02-13 12:28:00,
2013-02-13 06:30:00,41.3,31.9,30.03,NW,306,6.0,9.0,69,0.00,,,0.00,Wunderground v.1.15,2013-02-13 12:30:00,
2013-02-13 06:31:00,41.2,31.8,30.04,NNW,339,5.0,6.0,69,0.00,,,0.00,Wunderground v.1.15,2013-02-13 12:31:00,
2013-02-13 06:35:00,41.2,31.8,30.04,NNW,342,6.0,6.0,69,0.00,,,0.00,Wunderground v.1.15,2013-02-13 12:35:00,
2013-02-13 06:36:00,41.2,31.8,30.04,NNW,330,6.0,7.0,69,0.00,,,0.00,Wunderground v.1.15,2013-02-13 12:36:00,
2013-02-13 06:38:00,41.1,31.7,30.04,NNW,340,6.0,8.0,69,0.00,,,0.00,Wunderground v.1.15,2013-02-13 12:38:00,
2013-02-13 06:41:00,41.1,31.7,30.04,NW,316,6.0,6.0,69,0.00,,,0.00,Wunderground v.1.15,2013-02-13 12:41:00,
2013-02-13 06:42:00,41.1,31.7,30.04,North,354,6.0,6.0,69,0.00,,,0.00,Wunderground v.1.15,2013-02-13 12:42:00,
2013-02-13 06:43:00,41.1,31.7,30.04,North,0,6.0,6.0,69,0.00,,,0.00,Wunderground v.1.15,2013-02-13 12:43:00,
2013-02-13 06:46:00,40.9,31.9,30.04,North,356,6.0,6.0,70,0.00,,,0.00,Wunderground v.1.15,2013-02-13 12:46:00,
2013-02-13 06:47:00,40.9,31.9,30.04,NNW,346,6.0,6.0,70,0.00,,,0.00,Wunderground v.1.15,2013-02-13 12:47:00,
2013-02-13 06:51:00,40.8,31.8,30.04,NNW,333,5.0,6.0,70,0.00,,,0.00,Wunderground v.1.15,2013-02-13 12:51:00,
2013-02-13 06:54:00,40.6,31.6,30.04,NNW,342,5.0,6.0,70,0.00,,,0.00,Wunderground v.1.15,2013-02-13 12:54:00,
2013-02-13 06:57:00,40.5,31.8,30.04,NNW,335,5.0,6.0,71,0.00,,,0.00,Wunderground v.1.15,2013-02-13 12:57:00,
2013-02-13 07:00:00,40.5,31.8,30.04,NNW,329,5.0,6.0,71,0.00,,,0.00,Wunderground v.1.15,2013-02-13 13:00:00,
2013-02-13 07:01:00,40.5,31.8,30.04,NW,322,4.0,6.0,71,0.00,,,0.00,Wunderground v.1.15,2013-02-13 13:01:00,
2013-02-13 07:02:00,40.3,31.6,30.04,NNW,333,5.0,6.0,71,0.00,,,0.00,Wunderground v.1.15,2013-02-13 13:02:00,
2013-02-13 07:07:00,40.2,31.5,30.04,NW,326,4.0,8.0,71,0.00,,,0.00,Wunderground v.1.15,2013-02-13 13:07:00,
2013-02-13 07:08:00,40.2,31.5,30.04,NW,326,4.0,8.0,71,0.00,,,0.00,Wunderground v.1.15,2013-02-13 13:08:00,
2013-02-13 07:10:00,40.2,31.5,30.04,NNW,340,5.0,5.0,71,0.00,,,0.00,Wunderground v.1.15,2013-02-13 13:10:00,
2013-02-13 07:13:00,40.1,31.4,30.04,NNW,335,5.0,7.0,71,0.00,,,0.00,Wunderground v.1.15,2013-02-13 13:13:00,
2013-02-13 07:15:00,40.1,31.8,30.04,NNW,329,5.0,7.0,72,0.00,,,0.00,Wunderground v.1.15,2013-02-13 13:15:00,
2013-02-13 07:21:00,39.9,31.6,30.04,NW,323,6.0,6.0,72,0.00,,,0.00,Wunderground v.1.15,2013-02-13 13:21:00,
2013-02-13 07:22:00,39.8,31.5,30.04,NNW,328,5.0,6.0,72,0.00,,,0.00,Wunderground v.1.15,2013-02-13 13:22:00,
2013-02-13 07:23:00,39.8,31.5,30.04,NNW,336,6.0,6.0,72,0.00,,,0.00,Wunderground v.1.15,2013-02-13 13:23:00,
2013-02-13 07:27:00,39.8,31.5,30.04,NNW,332,6.0,8.0,72,0.00,,,0.00,Wunderground v.1.15,2013-02-13 13:27:00,
2013-02-13 07:28:00,39.6,31.3,30.04,NW,320,6.0,8.0,72,0.00,,,0.00,Wunderground v.1.15,2013-02-13 13:28:00,
2013-02-13 07:33:00,39.6,31.7,30.05,NNW,343,6.0,7.0,73,0.00,,,0.00,Wunderground v.1.15,2013-02-13 13:33:00,
2013-02-13 07:35:00,39.6,31.7,30.05,NW,325,6.0,7.0,73,0.00,,,0.00,Wunderground v.1.15,2013-02-13 13:35:00,
2013-02-13 07:37:00,39.6,31.7,30.05,NNW,339,6.0,7.0,73,0.00,,,0.00,Wunderground v.1.15,2013-02-13 13:37:00,
2013-02-13 07:41:00,39.8,31.8,30.05,North,349,5.0,6.0,73,0.00,,,0.00,Wunderground v.1.15,2013-02-13 13:41:00,
2013-02-13 07:42:00,39.8,31.8,30.05,NNW,343,5.0,6.0,73,0.00,,,0.00,Wunderground v.1.15,2013-02-13 13:42:00,
2013-02-13 07:43:00,39.8,31.8,30.05,NW,319,6.0,7.0,73,0.00,,,0.00,Wunderground v.1.15,2013-02-13 13:43:00,
2013-02-13 07:48:00,39.9,31.9,30.05,NW,315,6.0,10.0,73,0.00,,,0.00,Wunderground v.1.15,2013-02-13 13:48:00,
2013-02-13 07:51:00,39.9,31.6,30.05,NNW,332,6.0,7.0,72,0.00,,,0.00,Wunderground v.1.15,2013-02-13 13:51:00,
2013-02-13 07:53:00,40.1,31.8,30.05,NW,326,7.0,7.0,72,0.00,,,0.00,Wunderground v.1.15,2013-02-13 13:53:00,
2013-02-13 07:54:00,40.1,31.8,30.05,NW,323,7.0,7.0,72,0.00,,,0.00,Wunderground v.1.15,2013-02-13 13:54:00,
2013-02-13 07:56:00,40.2,31.9,30.05,NNW,333,7.0,7.0,72,0.00,,,0.00,Wunderground v.1.15,2013-02-13 13:56:00,
2013-02-13 08:00:00,40.3,32.0,30.05,North,1,7.0,7.0,72,0.00,,,0.00,Wunderground v.1.15,2013-02-13 14:00:00,
2013-02-13 08:02:00,40.5,32.2,30.05,NNW,328,7.0,10.0,72,0.00,,,0.00,Wunderground v.1.15,2013-02-13 14:02:00,
2013-02-13 08:05:00,40.6,32.3,30.05,North,349,7.0,10.0,72,0.00,,,0.00,Wunderground v.1.15,2013-02-13 14:05:00,
2013-02-13 08:06:00,40.8,32.5,30.05,North,0,7.0,10.0,72,0.00,,,0.00,Wunderground v.1.15,2013-02-13 14:06:00,
2013-02-13 08:07:00,40.8,32.1,30.05,North,349,7.0,10.0,71,0.00,,,0.00,Wunderground v.1.15,2013-02-13 14:07:00,
2013-02-13 08:10:00,40.9,32.2,30.05,North,350,7.0,7.0,71,0.00,,,0.00,Wunderground v.1.15,2013-02-13 14:10:00,
2013-02-13 08:11:00,40.9,32.2,30.05,NW,316,7.0,7.0,71,0.00,,,0.00,Wunderground v.1.15,2013-02-13 14:11:00,
2013-02-13 08:12:00,41.1,32.4,30.05,North,350,7.0,7.0,71,0.00,,,0.00,Wunderground v.1.15,2013-02-13 14:12:00,
2013-02-13 08:15:00,41.1,32.4,30.05,NW,325,7.0,8.0,71,0.00,,,0.00,Wunderground v.1.15,2013-02-13 14:15:00,
2013-02-13 08:17:00,41.2,32.2,30.05,NNW,337,7.0,9.0,70,0.00,,,0.00,Wunderground v.1.15,2013-02-13 14:17:00,
2013-02-13 08:18:00,41.2,32.2,30.05,NNW,335,7.0,9.0,70,0.00,,,0.00,Wunderground v.1.15,2013-02-13 14:18:00,
2013-02-13 08:21:00,41.3,32.2,30.05,NW,322,8.0,10.0,70,0.00,,,0.00,Wunderground v.1.15,2013-02-13 14:21:00,
2013-02-13 08:22:00,41.5,32.4,30.05,NW,313,8.0,10.0,70,0.00,,,0.00,Wunderground v.1.15,2013-02-13 14:22:00,
2013-02-13 08:23:00,41.5,32.1,30.05,NNW,333,8.0,10.0,69,0.00,,,0.00,Wunderground v.1.15,2013-02-13 14:23:00,
2013-02-13 08:25:00,41.6,32.2,30.05,North,10,7.0,10.0,69,0.00,,,0.00,Wunderground v.1.15,2013-02-13 14:25:00,
2013-02-13 08:28:00,41.6,32.2,30.05,NW,316,8.0,10.0,69,0.00,,,0.00,Wunderground v.1.15,2013-02-13 14:28:00,
2013-02-13 08:31:00,41.6,32.2,30.06,NW,320,8.0,8.0,69,0.00,,,0.00,Wunderground v.1.15,2013-02-13 14:31:00,
2013-02-13 08:33:00,41.8,32.4,30.06,North,349,7.0,8.0,69,0.00,,,0.00,Wunderground v.1.15,2013-02-13 14:33:00,
2013-02-13 08:35:00,41.9,32.5,30.06,NNW,330,7.0,8.0,69,0.00,,,0.00,Wunderground v.1.15,2013-02-13 14:35:00,
2013-02-13 08:37:00,41.9,32.5,30.06,North,0,7.0,13.0,69,0.00,,,0.00,Wunderground v.1.15,2013-02-13 14:37:00,
2013-02-13 08:38:00,41.9,32.1,30.06,NNW,332,7.0,13.0,68,0.00,,,0.00,Wunderground v.1.15,2013-02-13 14:38:00,
2013-02-13 08:41:00,42.1,32.7,30.06,NNW,336,7.0,8.0,69,0.00,,,0.00,Wunderground v.1.15,2013-02-13 14:41:00,
2013-02-13 08:42:00,42.1,32.3,30.06,NW,318,7.0,8.0,68,0.00,,,0.00,Wunderground v.1.15,2013-02-13 14:42:00,
2013-02-13 08:44:00,42.2,32.4,30.06,NW,312,7.0,8.0,68,0.00,,,0.00,Wunderground v.1.15,2013-02-13 14:44:00,
2013-02-13 08:47:00,42.3,32.1,30.07,NNW,335,7.0,10.0,67,0.00,,,0.00,Wunderground v.1.15,2013-02-13 14:47:00,
2013-02-13 08:48:00,42.3,32.1,30.07,NNW,328,7.0,10.0,67,0.00,,,0.00,Wunderground v.1.15,2013-02-13 14:48:00,
2013-02-13 08:49:00,42.3,32.1,30.07,North,349,7.0,10.0,67,0.00,,,0.00,Wunderground v.1.15,2013-02-13 14:49:00,
2013-02-13 08:54:00,42.8,32.6,30.07,North,8,8.0,12.0,67,0.00,,,0.00,Wunderground v.1.15,2013-02-13 14:54:00,
2013-02-13 08:56:00,42.9,32.3,30.07,NNW,330,8.0,12.0,66,0.00,,,0.00,Wunderground v.1.15,2013-02-13 14:56:00,
2013-02-13 09:01:00,43.3,32.3,30.07,North,0,7.0,7.0,65,0.00,,,0.00,Wunderground v.1.15,2013-02-13 15:01:00,
2013-02-13 09:02:00,43.5,32.5,30.07,WNW,302,7.0,8.0,65,0.00,,,0.00,Wunderground v.1.15,2013-02-13 15:02:00,
2013-02-13 09:03:00,43.6,32.6,30.07,North,0,8.0,8.0,65,0.00,,,0.00,Wunderground v.1.15,2013-02-13 15:03:00,
2013-02-13 09:05:00,43.8,32.4,30.07,North,1,8.0,10.0,64,0.00,,,0.00,Wunderground v.1.15,2013-02-13 15:05:00,
2013-02-13 09:07:00,43.8,32.4,30.07,NW,312,8.0,10.0,64,0.00,,,0.00,Wunderground v.1.15,2013-02-13 15:07:00,
2013-02-13 09:08:00,43.9,32.5,30.07,NNW,335,8.0,10.0,64,0.00,,,0.00,Wunderground v.1.15,2013-02-13 15:08:00,
2013-02-13 09:09:00,44.1,33.1,30.07,North,354,8.0,10.0,65,0.00,,,0.00,Wunderground v.1.15,2013-02-13 15:09:00,
2013-02-13 09:15:00,44.9,33.5,30.07,North,0,6.0,10.0,64,0.00,,,0.00,Wunderground v.1.15,2013-02-13 15:15:00,
2013-02-13 09:16:00,45.1,33.2,30.07,NNW,340,5.0,10.0,63,0.00,,,0.00,Wunderground v.1.15,2013-02-13 15:16:00,
2013-02-13 09:17:00,45.2,32.9,30.07,North,356,5.0,10.0,62,0.00,,,0.00,Wunderground v.1.15,2013-02-13 15:17:00,
2013-02-13 09:22:00,45.8,32.7,30.07,North,0,6.0,8.0,60,0.00,,,0.00,Wunderground v.1.15,2013-02-13 15:22:00,
2013-02-13 09:24:00,46.0,32.5,30.07,NW,319,7.0,9.0,59,0.00,,,0.00,Wunderground v.1.15,2013-02-13 15:24:00,
2013-02-13 09:28:00,46.4,32.4,30.07,NNW,346,7.0,11.0,58,0.00,,,0.00,Wunderground v.1.15,2013-02-13 15:28:00,
2013-02-13 09:29:00,46.4,32.4,30.07,North,0,7.0,11.0,58,0.00,,,0.00,Wunderground v.1.15,2013-02-13 15:29:00,
2013-02-13 09:31:00,46.5,32.5,30.07,NNW,335,7.0,7.0,58,0.00,,,0.00,Wunderground v.1.15,2013-02-13 15:31:00,
2013-02-13 09:34:00,46.8,32.4,30.07,North,350,7.0,8.0,57,0.00,,,0.00,Wunderground v.1.15,2013-02-13 15:34:00,
2013-02-13 09:35:00,46.8,32.4,30.07,NW,320,6.0,8.0,57,0.00,,,0.00,Wunderground v.1.15,2013-02-13 15:35:00,
2013-02-13 09:36:00,47.0,32.5,30.07,North,353,6.0,8.0,57,0.00,,,0.00,Wunderground v.1.15,2013-02-13 15:36:00,
2013-02-13 09:41:00,47.1,32.6,30.07,NW,313,7.0,11.0,57,0.00,,,0.00,Wunderground v.1.15,2013-02-13 15:41:00,
2013-02-13 09:46:00,47.7,32.8,30.07,North,356,6.0,8.0,56,0.00,,,0.00,Wunderground v.1.15,2013-02-13 15:46:00,
2013-02-13 09:47:00,47.7,32.3,30.07,NNW,330,7.0,8.0,55,0.00,,,0.00,Wunderground v.1.15,2013-02-13 15:47:00,
2013-02-13 09:51:00,48.2,32.8,30.07,North,0,6.0,6.0,55,0.00,,,0.00,Wunderground v.1.15,2013-02-13 15:51:00,
2013-02-13 09:52:00,48.3,32.9,30.07,NNW,330,5.0,6.0,55,0.00,,,0.00,Wunderground v.1.15,2013-02-13 15:52:00,
2013-02-13 09:53:00,48.5,33.1,30.07,North,359,5.0,6.0,55,0.00,,,0.00,Wunderground v.1.15,2013-02-13 15:53:00,
2013-02-13 09:56:00,48.8,32.9,30.07,NW,322,5.0,6.0,54,0.00,,,0.00,Wunderground v.1.15,2013-02-13 15:56:00,
2013-02-13 09:57:00,48.8,32.9,30.07,NNW,336,5.0,6.0,54,0.00,,,0.00,Wunderground v.1.15,2013-02-13 15:57:00,
2013-02-13 10:01:00,48.9,33.0,30.08,NNW,336,5.0,5.0,54,0.00,,,0.00,Wunderground v.1.15,2013-02-13 16:01:00,
2013-02-13 10:04:00,49.1,32.7,30.08,NNW,335,5.0,10.0,53,0.00,,,0.00,Wunderground v.1.15,2013-02-13 16:04:00,
2013-02-13 10:05:00,49.2,32.8,30.08,North,359,6.0,10.0,53,0.00,,,0.00,Wunderground v.1.15,2013-02-13 16:05:00,
2013-02-13 10:06:00,49.2,32.8,30.08,NNW,342,6.0,10.0,53,0.00,,,0.00,Wunderground v.1.15,2013-02-13 16:06:00,
2013-02-13 10:08:00,49.4,33.0,30.08,NNW,328,6.0,10.0,53,0.00,,,0.00,Wunderground v.1.15,2013-02-13 16:08:00,
2013-02-13 10:11:00,49.6,32.7,30.08,NNE,27,5.0,6.0,52,0.00,,,0.00,Wunderground v.1.15,2013-02-13 16:11:00,
2013-02-13 10:12:00,49.8,32.9,30.08,NE,44,6.0,6.0,52,0.00,,,0.00,Wunderground v.1.15,2013-02-13 16:12:00,
2013-02-13 10:14:00,49.9,33.0,30.08,NNW,342,5.0,7.0,52,0.00,,,0.00,Wunderground v.1.15,2013-02-13 16:14:00,
2013-02-13 10:16:00,50.2,33.2,30.08,North,352,5.0,7.0,52,0.00,,,0.00,Wunderground v.1.15,2013-02-13 16:16:00,
2013-02-13 10:18:00,50.4,32.9,30.08,North,0,5.0,7.0,51,0.00,,,0.00,Wunderground v.1.15,2013-02-13 16:18:00,
2013-02-13 10:24:00,51.1,33.1,30.08,NW,320,4.0,5.0,50,0.00,,,0.00,Wunderground v.1.15,2013-02-13 16:24:00,
2013-02-13 10:25:00,51.3,33.3,30.08,NW,320,4.0,5.0,50,0.00,,,0.00,Wunderground v.1.15,2013-02-13 16:25:00,
2013-02-13 10:26:00,51.4,32.9,30.08,NE,42,4.0,6.0,49,0.00,,,0.00,Wunderground v.1.15,2013-02-13 16:26:00,
2013-02-13 10:27:00,51.4,32.9,30.08,NE,51,4.0,6.0,49,0.00,,,0.00,Wunderground v.1.15,2013-02-13 16:27:00,
2013-02-13 10:32:00,51.6,33.0,30.08,NNW,342,4.0,4.0,49,0.00,,,0.00,Wunderground v.1.15,2013-02-13 16:32:00,
2013-02-13 10:34:00,51.6,32.5,30.08,NNE,28,4.0,6.0,48,0.00,,,0.00,Wunderground v.1.15,2013-02-13 16:34:00,
2013-02-13 10:35:00,51.6,32.5,30.08,NE,37,4.0,7.0,48,0.00,,,0.00,Wunderground v.1.15,2013-02-13 16:35:00,
2013-02-13 10:36:00,51.7,32.6,30.08,North,353,5.0,9.0,48,0.00,,,0.00,Wunderground v.1.15,2013-02-13 16:36:00,
2013-02-13 10:37:00,51.7,32.6,30.08,NNE,24,5.0,9.0,48,0.00,,,0.00,Wunderground v.1.15,2013-02-13 16:37:00,
2013-02-13 10:42:00,52.2,32.6,30.08,NE,40,5.0,5.0,47,0.00,,,0.00,Wunderground v.1.15,2013-02-13 16:42:00,
2013-02-13 10:43:00,52.3,32.6,30.08,North,0,6.0,6.0,47,0.00,,,0.00,Wunderground v.1.15,2013-02-13 16:43:00,
2013-02-13 10:44:00,52.3,32.6,30.08,North,7,6.0,6.0,47,0.00,,,0.00,Wunderground v.1.15,2013-02-13 16:44:00,
2013-02-13 10:45:00,52.5,32.8,30.08,NNE,32,6.0,6.0,47,0.00,,,0.00,Wunderground v.1.15,2013-02-13 16:45:00,
2013-02-13 10:49:00,52.9,32.1,30.08,NNE,27,5.0,10.0,45,0.00,,,0.00,Wunderground v.1.15,2013-02-13 16:49:00,
2013-02-13 10:51:00,52.9,32.1,30.08,NNW,337,5.0,5.0,45,0.00,,,0.00,Wunderground v.1.15,2013-02-13 16:51:00,
2013-02-13 10:52:00,53.1,32.3,30.08,NE,48,5.0,5.0,45,0.00,,,0.00,Wunderground v.1.15,2013-02-13 16:52:00,
2013-02-13 10:55:00,53.3,32.5,30.08,NNW,330,5.0,7.0,45,0.00,,,0.00,Wunderground v.1.15,2013-02-13 16:55:00,
2013-02-13 10:56:00,53.3,31.9,30.08,NNW,329,5.0,7.0,44,0.00,,,0.00,Wunderground v.1.15,2013-02-13 16:56:00,
2013-02-13 10:57:00,53.3,32.5,30.08,NNE,17,5.0,7.0,45,0.00,,,0.00,Wunderground v.1.15,2013-02-13 16:57:00,
2013-02-13 11:00:00,53.3,31.9,30.08,North,0,5.0,7.0,44,0.00,,,0.00,Wunderground v.1.15,2013-02-13 17:00:00,
2013-02-13 11:02:00,53.3,31.9,30.08,North,357,5.0,10.0,44,0.00,,,0.00,Wunderground v.1.15,2013-02-13 17:02:00,
2013-02-13 11:04:00,53.5,32.1,30.08,ENE,65,5.0,10.0,44,0.00,,,0.00,Wunderground v.1.15,2013-02-13 17:04:00,
2013-02-13 11:06:00,53.6,32.2,30.08,ENE,59,5.0,10.0,44,0.00,,,0.00,Wunderground v.1.15,2013-02-13 17:06:00,
2013-02-13 11:07:00,53.8,32.4,30.08,NE,40,5.0,10.0,44,0.00,,,0.00,Wunderground v.1.15,2013-02-13 17:07:00,
2013-02-13 11:08:00,53.9,32.5,30.08,NE,34,5.0,10.0,44,0.00,,,0.00,Wunderground v.1.15,2013-02-13 17:08:00,
2013-02-13 11:09:00,54.1,32.1,30.08,North,0,5.0,10.0,43,0.00,,,0.00,Wunderground v.1.15,2013-02-13 17:09:00,
2013-02-13 11:11:00,54.2,32.2,30.08,NNW,347,5.0,5.0,43,0.00,,,0.00,Wunderground v.1.15,2013-02-13 17:11:00,
2013-02-13 11:13:00,54.4,31.8,30.08,NNE,30,5.0,6.0,42,0.00,,,0.00,Wunderground v.1.15,2013-02-13 17:13:00,
2013-02-13 11:14:00,54.4,32.3,30.08,North,359,5.0,6.0,43,0.00,,,0.00,Wunderground v.1.15,2013-02-13 17:14:00,
2013-02-13 11:16:00,54.5,32.4,30.08,NNW,332,5.0,7.0,43,0.00,,,0.00,Wunderground v.1.15,2013-02-13 17:16:00,
2013-02-13 11:17:00,54.5,31.9,30.08,NW,319,5.0,7.0,42,0.00,,,0.00,Wunderground v.1.15,2013-02-13 17:17:00,
2013-02-13 11:21:00,54.5,32.4,30.08,NW,323,5.0,5.0,43,0.00,,,0.00,Wunderground v.1.15,2013-02-13 17:21:00,
2013-02-13 11:23:00,54.7,32.6,30.08,NE,51,5.0,8.0,43,0.00,,,0.00,Wunderground v.1.15,2013-02-13 17:23:00,
2013-02-13 11:24:00,54.7,32.0,30.08,NE,34,5.0,8.0,42,0.00,,,0.00,Wunderground v.1.15,2013-02-13 17:24:00,
2013-02-13 11:25:00,54.8,32.7,30.08,North,354,5.0,8.0,43,0.00,,,0.00,Wunderground v.1.15,2013-02-13 17:25:00,
2013-02-13 11:28:00,55.1,31.8,30.08,ENE,65,4.0,8.0,41,0.00,,,0.00,Wunderground v.1.15,2013-02-13 17:28:00,
2013-02-13 11:32:00,55.6,32.8,30.07,NW,312,4.0,5.0,42,0.00,,,0.00,Wunderground v.1.15,2013-02-13 17:32:00,
2013-02-13 11:34:00,55.7,32.3,30.07,NNW,343,4.0,6.0,41,0.00,,,0.00,Wunderground v.1.15,2013-02-13 17:34:00,
2013-02-13 11:35:00,55.7,32.3,30.07,NNW,346,4.0,6.0,41,0.00,,,0.00,Wunderground v.1.15,2013-02-13 17:35:00,
2013-02-13 11:36:00,55.9,32.5,30.07,NNW,329,4.0,7.0,41,0.00,,,0.00,Wunderground v.1.15,2013-02-13 17:36:00,
2013-02-13 11:38:00,55.7,31.7,30.07,NNE,13,4.0,7.0,40,0.00,,,0.00,Wunderground v.1.15,2013-02-13 17:38:00,
2013-02-13 11:41:00,55.7,32.3,30.07,East,85,5.0,6.0,41,0.00,,,0.00,Wunderground v.1.15,2013-02-13 17:41:00,
2013-02-13 11:43:00,55.7,31.7,30.07,NE,41,4.0,6.0,40,0.00,,,0.00,Wunderground v.1.15,2013-02-13 17:43:00,
2013-02-13 11:46:00,55.9,32.5,30.07,NE,37,4.0,6.0,41,0.00,,,0.00,Wunderground v.1.15,2013-02-13 17:46:00,
2013-02-13 11:48:00,56.2,32.2,30.07,NNW,328,4.0,6.0,40,0.00,,,0.00,Wunderground v.1.15,2013-02-13 17:48:00,
2013-02-13 11:49:00,56.2,32.2,30.07,NE,37,4.0,6.0,40,0.00,,,0.00,Wunderground v.1.15,2013-02-13 17:49:00,
2013-02-13 11:53:00,56.0,32.0,30.07,NE,44,3.0,4.0,40,0.00,,,0.00,Wunderground v.1.15,2013-02-13 17:53:00,
2013-02-13 11:55:00,56.0,32.6,30.07,ENE,59,3.0,4.0,41,0.00,,,0.00,Wunderground v.1.15,2013-02-13 17:55:00,
2013-02-13 11:58:00,56.3,32.3,30.07,NE,52,4.0,8.0,40,0.00,,,0.00,Wunderground v.1.15,2013-02-13 17:58:00,
2013-02-13 12:00:00,56.5,31.8,30.06,NE,38,4.0,7.0,39,0.00,,,0.00,Wunderground v.1.15,2013-02-13 18:00:00,
2013-02-13 12:02:00,56.5,31.8,30.06,North,0,4.0,7.0,39,0.00,,,0.00,Wunderground v.1.15,2013-02-13 18:02:00,
2013-02-13 12:04:00,56.5,31.8,30.06,North,1,4.0,7.0,39,0.00,,,0.00,Wunderground v.1.15,2013-02-13 18:04:00,
2013-02-13 12:07:00,56.6,31.9,30.06,North,0,3.0,7.0,39,0.00,,,0.00,Wunderground v.1.15,2013-02-13 18:07:00,
2013-02-13 12:09:00,56.7,31.4,30.06,NNE,32,3.0,7.0,38,0.00,,,0.00,Wunderground v.1.15,2013-02-13 18:09:00,
2013-02-13 12:12:00,56.9,32.8,30.06,ENE,61,3.0,11.0,40,0.00,,,0.00,Wunderground v.1.15,2013-02-13 18:12:00,
2013-02-13 12:14:00,56.9,31.5,30.06,NE,49,4.0,11.0,38,0.00,,,0.00,Wunderground v.1.15,2013-02-13 18:14:00,
2013-02-13 12:15:00,56.7,31.4,30.06,NNW,329,4.0,11.0,38,0.00,,,0.00,Wunderground v.1.15,2013-02-13 18:15:00,
2013-02-13 12:16:00,56.7,32.6,30.05,NNE,24,4.0,11.0,40,0.00,,,0.00,Wunderground v.1.15,2013-02-13 18:16:00,
2013-02-13 12:21:00,57.5,31.4,30.05,North,350,5.0,5.0,37,0.00,,,0.00,Wunderground v.1.15,2013-02-13 18:21:00,
2013-02-13 12:23:00,57.6,30.8,30.05,NW,325,5.0,5.0,36,0.00,,,0.00,Wunderground v.1.15,2013-02-13 18:23:00,
2013-02-13 12:25:00,57.6,31.5,30.05,NE,38,5.0,5.0,37,0.00,,,0.00,Wunderground v.1.15,2013-02-13 18:25:00,
2013-02-13 12:29:00,58.0,32.5,30.05,NNW,342,5.0,5.0,38,0.00,,,0.00,Wunderground v.1.15,2013-02-13 18:29:00,
2013-02-13 12:30:00,58.0,32.5,30.04,NNW,346,4.0,5.0,38,0.00,,,0.00,Wunderground v.1.15,2013-02-13 18:30:00,
2013-02-13 12:31:00,58.1,32.6,30.04,NE,41,4.0,6.0,38,0.00,,,0.00,Wunderground v.1.15,2013-02-13 18:31:00,
2013-02-13 12:32:00,58.1,31.9,30.04,NNE,25,4.0,7.0,37,0.00,,,0.00,Wunderground v.1.15,2013-02-13 18:32:00,
2013-02-13 12:36:00,58.1,31.3,30.04,NE,45,5.0,7.0,36,0.00,,,0.00,Wunderground v.1.15,2013-02-13 18:36:00,
2013-02-13 12:37:00,58.0,31.2,30.04,NE,44,5.0,7.0,36,0.00,,,0.00,Wunderground v.1.15,2013-02-13 18:37:00,
2013-02-13 12:38:00,58.0,31.2,30.04,NE,44,5.0,7.0,36,0.00,,,0.00,Wunderground v.1.15,2013-02-13 18:38:00,
2013-02-13 12:42:00,58.1,30.6,30.04,NE,49,4.0,7.0,35,0.00,,,0.00,Wunderground v.1.15,2013-02-13 18:42:00,
2013-02-13 12:43:00,58.1,30.6,30.04,NNE,30,4.0,7.0,35,0.00,,,0.00,Wunderground v.1.15,2013-02-13 18:43:00,
2013-02-13 12:44:00,58.1,29.8,30.04,NE,54,4.0,7.0,34,0.00,,,0.00,Wunderground v.1.15,2013-02-13 18:44:00,
2013-02-13 12:48:00,58.4,30.8,30.04,NW,322,4.0,8.0,35,0.00,,,0.00,Wunderground v.1.15,2013-02-13 18:48:00,
2013-02-13 12:50:00,58.7,31.8,30.04,NNE,31,4.0,4.0,36,0.00,,,0.00,Wunderground v.1.15,2013-02-13 18:50:00,
2013-02-13 12:51:00,58.7,31.8,30.04,NNW,337,4.0,5.0,36,0.00,,,0.00,Wunderground v.1.15,2013-02-13 18:51:00,
2013-02-13 12:53:00,58.9,30.6,30.04,NNW,339,3.0,6.0,34,0.00,,,0.00,Wunderground v.1.15,2013-02-13 18:53:00,
2013-02-13 12:56:00,59.2,29.3,30.04,West,278,3.0,7.0,32,0.00,,,0.00,Wunderground v.1.15,2013-02-13 18:56:00,
2013-02-13 12:57:00,59.3,30.2,30.04,WSW,251,3.0,7.0,33,0.00,,,0.00,Wunderground v.1.15,2013-02-13 18:57:00,
2013-02-13 12:58:00,59.3,29.4,30.04,WSW,254,3.0,7.0,32,0.00,,,0.00,Wunderground v.1.15,2013-02-13 18:58:00,
2013-02-13 13:01:00,59.5,31.1,30.03,NNE,21,4.0,4.0,34,0.00,,,0.00,Wunderground v.1.15,2013-02-13 19:01:00,
2013-02-13 13:02:00,59.5,30.3,30.03,NNW,330,3.0,5.0,33,0.00,,,0.00,Wunderground v.1.15,2013-02-13 19:02:00,
2013-02-13 13:03:00,59.5,29.6,30.03,NE,34,3.0,5.0,32,0.00,,,0.00,Wunderground v.1.15,2013-02-13 19:03:00,
2013-02-13 13:08:00,59.6,29.7,30.03,North,359,4.0,6.0,32,0.00,,,0.00,Wunderground v.1.15,2013-02-13 19:08:00,
2013-02-13 13:09:00,59.8,29.9,30.03,NW,311,4.0,6.0,32,0.00,,,0.00,Wunderground v.1.15,2013-02-13 19:09:00,
2013-02-13 13:11:00,59.6,29.7,30.03,SW,236,5.0,5.0,32,0.00,,,0.00,Wunderground v.1.15,2013-02-13 19:11:00,
2013-02-13 13:12:00,59.8,29.9,30.03,WSW,237,5.0,5.0,32,0.00,,,0.00,Wunderground v.1.15,2013-02-13 19:12:00,
2013-02-13 13:13:00,59.9,29.9,30.03,WSW,251,4.0,5.0,32,0.00,,,0.00,Wunderground v.1.15,2013-02-13 19:13:00,
2013-02-13 13:15:00,59.9,29.2,30.03,NE,48,4.0,6.0,31,0.00,,,0.00,Wunderground v.1.15,2013-02-13 19:15:00,
2013-02-13 13:19:00,60.1,28.5,30.02,NE,38,4.0,8.0,30,0.00,,,0.00,Wunderground v.1.15,2013-02-13 19:19:00,
2013-02-13 13:20:00,59.9,29.2,30.02,NNW,343,4.0,6.0,31,0.00,,,0.00,Wunderground v.1.15,2013-02-13 19:20:00,
2013-02-13 13:21:00,59.9,29.2,30.02,NW,325,4.0,6.0,31,0.00,,,0.00,Wunderground v.1.15,2013-02-13 19:21:00,
2013-02-13 13:22:00,59.9,28.4,30.02,North,352,4.0,6.0,30,0.00,,,0.00,Wunderground v.1.15,2013-02-13 19:22:00,
2013-02-13 13:26:00,59.8,28.3,30.02,North,0,4.0,6.0,30,0.00,,,0.00,Wunderground v.1.15,2013-02-13 19:26:00,
2013-02-13 13:28:00,59.9,29.2,30.02,NW,323,4.0,6.0,31,0.00,,,0.00,Wunderground v.1.15,2013-02-13 19:28:00,
2013-02-13 13:31:00,60.4,29.6,30.01,NW,323,3.0,3.0,31,0.00,,,0.00,Wunderground v.1.15,2013-02-13 19:31:00,
2013-02-13 13:32:00,60.5,29.7,30.01,NW,323,2.0,3.0,31,0.00,,,0.00,Wunderground v.1.15,2013-02-13 19:32:00,
2013-02-13 13:33:00,60.7,29.9,30.01,NW,323,2.0,3.0,31,0.00,,,0.00,Wunderground v.1.15,2013-02-13 19:33:00,
2013-02-13 13:37:00,61.2,27.8,30.01,West,260,2.0,5.0,28,0.00,,,0.00,Wunderground v.1.15,2013-02-13 19:37:00,
2013-02-13 13:40:00,61.0,26.7,30.01,NNW,344,3.0,5.0,27,0.00,,,0.00,Wunderground v.1.15,2013-02-13 19:40:00,
2013-02-13 13:41:00,60.9,26.7,30.01,NNW,347,3.0,7.0,27,0.00,,,0.00,Wunderground v.1.15,2013-02-13 19:41:00,
2013-02-13 13:43:00,60.9,26.7,30.01,WNW,296,4.0,7.0,27,0.00,,,0.00,Wunderground v.1.15,2013-02-13 19:43:00,
2013-02-13 13:45:00,60.9,26.7,30.01,NW,313,5.0,7.0,27,0.00,,,0.00,Wunderground v.1.15,2013-02-13 19:45:00,
2013-02-13 13:48:00,60.9,27.5,30.00,WNW,285,5.0,7.0,28,0.00,,,0.00,Wunderground v.1.15,2013-02-13 19:48:00,
2013-02-13 13:50:00,61.0,27.6,30.00,WNW,282,5.0,5.0,28,0.00,,,0.00,Wunderground v.1.15,2013-02-13 19:50:00,
2013-02-13 13:52:00,61.0,27.6,30.00,WNW,301,5.0,6.0,28,0.00,,,0.00,Wunderground v.1.15,2013-02-13 19:52:00,
2013-02-13 13:53:00,61.2,27.8,30.00,WNW,301,5.0,6.0,28,0.00,,,0.00,Wunderground v.1.15,2013-02-13 19:53:00,
2013-02-13 13:57:00,61.2,27.8,30.00,NW,316,4.0,6.0,28,0.00,,,0.00,Wunderground v.1.15,2013-02-13 19:57:00,
2013-02-13 13:58:00,61.2,27.8,30.00,NW,308,4.0,6.0,28,0.00,,,0.00,Wunderground v.1.15,2013-02-13 19:58:00,
2013-02-13 13:59:00,61.2,27.8,30.00,NW,308,4.0,6.0,28,0.00,,,0.00,Wunderground v.1.15,2013-02-13 19:59:00,
2013-02-13 14:02:00,61.5,28.1,29.99,NNE,21,4.0,5.0,28,0.00,,,0.00,Wunderground v.1.15,2013-02-13 20:02:00,
2013-02-13 14:03:00,61.5,28.1,29.99,NNE,21,4.0,5.0,28,0.00,,,0.00,Wunderground v.1.15,2013-02-13 20:03:00,
2013-02-13 14:07:00,62.0,27.6,29.99,WNW,295,3.0,6.0,27,0.00,,,0.00,Wunderground v.1.15,2013-02-13 20:07:00,
2013-02-13 14:08:00,62.0,27.6,29.99,WNW,295,3.0,6.0,27,0.00,,,0.00,Wunderground v.1.15,2013-02-13 20:08:00,
2013-02-13 14:09:00,62.0,27.6,29.99,WNW,295,3.0,6.0,27,0.00,,,0.00,Wunderground v.1.15,2013-02-13 20:09:00,
2013-02-13 14:13:00,61.8,24.6,29.99,NNW,328,3.0,7.0,24,0.00,,,0.00,Wunderground v.1.15,2013-02-13 20:13:00,
2013-02-13 14:15:00,61.8,26.5,29.99,North,350,4.0,7.0,26,0.00,,,0.00,Wunderground v.1.15,2013-02-13 20:15:00,
2013-02-13 14:16:00,61.8,25.6,29.99,NW,325,4.0,7.0,25,0.00,,,0.00,Wunderground v.1.15,2013-02-13 20:16:00,
2013-02-13 14:18:00,62.0,26.7,29.99,North,354,5.0,7.0,26,0.00,,,0.00,Wunderground v.1.15,2013-02-13 20:18:00,
2013-02-13 14:21:00,62.3,26.9,29.99,NNE,14,5.0,7.0,26,0.00,,,0.00,Wunderground v.1.15,2013-02-13 20:21:00,
2013-02-13 14:22:00,62.3,26.9,29.99,North,354,5.0,7.0,26,0.00,,,0.00,Wunderground v.1.15,2013-02-13 20:22:00,
2013-02-13 14:26:00,62.3,26.0,29.99,NNE,27,4.0,7.0,25,0.00,,,0.00,Wunderground v.1.15,2013-02-13 20:26:00,
2013-02-13 14:27:00,62.3,26.0,29.99,NNE,13,4.0,7.0,25,0.00,,,0.00,Wunderground v.1.15,2013-02-13 20:27:00,
2013-02-13 14:29:00,62.0,26.7,29.99,NE,52,4.0,7.0,26,0.00,,,0.00,Wunderground v.1.15,2013-02-13 20:29:00,
2013-02-13 14:31:00,61.8,26.5,29.97,North,10,4.0,6.0,26,0.00,,,0.00,Wunderground v.1.15,2013-02-13 20:31:00,
2013-02-13 14:35:00,62.3,27.9,29.97,NW,322,4.0,10.0,27,0.00,,,0.00,Wunderground v.1.15,2013-02-13 20:35:00,
2013-02-13 14:36:00,62.4,27.9,29.97,NNW,343,4.0,10.0,27,0.00,,,0.00,Wunderground v.1.15,2013-02-13 20:36:00,
2013-02-13 14:37:00,62.6,27.2,29.97,NNW,339,4.0,10.0,26,0.00,,,0.00,Wunderground v.1.15,2013-02-13 20:37:00,
2013-02-13 14:40:00,62.4,27.0,29.97,NE,34,5.0,10.0,26,0.00,,,0.00,Wunderground v.1.15,2013-02-13 20:40:00,
2013-02-13 14:41:00,62.4,27.0,29.97,NE,48,5.0,7.0,26,0.00,,,0.00,Wunderground v.1.15,2013-02-13 20:41:00,
2013-02-13 14:42:00,62.3,26.9,29.97,NE,49,5.0,7.0,26,0.00,,,0.00,Wunderground v.1.15,2013-02-13 20:42:00,
2013-02-13 14:43:00,62.3,27.9,29.97,NE,49,5.0,7.0,27,0.00,,,0.00,Wunderground v.1.15,2013-02-13 20:43:00,
2013-02-13 14:46:00,62.6,27.2,29.97,NW,312,4.0,7.0,26,0.00,,,0.00,Wunderground v.1.15,2013-02-13 20:46:00,
2013-02-13 14:48:00,62.9,27.5,29.97,WSW,254,3.0,7.0,26,0.00,,,0.00,Wunderground v.1.15,2013-02-13 20:48:00,
2013-02-13 14:49:00,62.9,27.5,29.97,West,261,4.0,7.0,26,0.00,,,0.00,Wunderground v.1.15,2013-02-13 20:49:00,
2013-02-13 14:51:00,62.9,26.5,29.97,West,261,3.0,3.0,25,0.00,,,0.00,Wunderground v.1.15,2013-02-13 20:51:00,
2013-02-13 14:52:00,63.1,27.6,29.97,West,263,3.0,3.0,26,0.00,,,0.00,Wunderground v.1.15,2013-02-13 20:52:00,
2013-02-13 14:53:00,63.2,27.7,29.97,West,261,3.0,3.0,26,0.00,,,0.00,Wunderground v.1.15,2013-02-13 20:53:00,
2013-02-13 14:57:00,63.9,27.4,29.97,SW,234,3.0,3.0,25,0.00,,,0.00,Wunderground v.1.15,2013-02-13 20:57:00,
2013-02-13 14:58:00,63.9,27.4,29.97,WSW,258,3.0,5.0,25,0.00,,,0.00,Wunderground v.1.15,2013-02-13 20:58:00,
2013-02-13 15:00:00,64.3,26.7,29.96,SW,226,3.0,3.0,24,0.00,,,0.00,Wunderground v.1.15,2013-02-13 21:00:00,
2013-02-13 15:03:00,64.2,26.6,29.96,East,88,4.0,6.0,24,0.00,,,0.00,Wunderground v.1.15,2013-02-13 21:03:00,
2013-02-13 15:06:00,64.0,27.4,29.96,ENE,75,3.0,6.0,25,0.00,,,0.00,Wunderground v.1.15,2013-02-13 21:06:00,
2013-02-13 15:07:00,64.0,27.4,29.96,ENE,75,3.0,6.0,25,0.00,,,0.00,Wunderground v.1.15,2013-02-13 21:07:00,
2013-02-13 15:08:00,64.2,27.6,29.96,ENE,59,3.0,6.0,25,0.00,,,0.00,Wunderground v.1.15,2013-02-13 21:08:00,
2013-02-13 15:09:00,64.2,26.6,29.96,NNW,346,3.0,6.0,24,0.00,,,0.00,Wunderground v.1.15,2013-02-13 21:09:00,
2013-02-13 15:13:00,63.7,26.2,29.96,NNW,337,3.0,6.0,24,0.00,,,0.00,Wunderground v.1.15,2013-02-13 21:13:00,
2013-02-13 15:14:00,63.7,26.2,29.96,North,3,3.0,6.0,24,0.00,,,0.00,Wunderground v.1.15,2013-02-13 21:14:00,
2013-02-13 15:15:00,63.7,26.2,29.96,North,0,3.0,6.0,24,0.00,,,0.00,Wunderground v.1.15,2013-02-13 21:15:00,
2013-02-13 15:17:00,63.5,27.0,29.96,North,0,4.0,6.0,25,0.00,,,0.00,Wunderground v.1.15,2013-02-13 21:17:00,
2013-02-13 15:19:00,63.9,27.4,29.96,WNW,299,4.0,6.0,25,0.00,,,0.00,Wunderground v.1.15,2013-02-13 21:19:00,
2013-02-13 15:21:00,64.0,27.4,29.96,North,1,3.0,5.0,25,0.00,,,0.00,Wunderground v.1.15,2013-02-13 21:21:00,
2013-02-13 15:24:00,64.2,26.6,29.96,NE,49,3.0,7.0,24,0.00,,,0.00,Wunderground v.1.15,2013-02-13 21:24:00,
2013-02-13 15:26:00,64.2,26.6,29.96,NE,40,3.0,7.0,24,0.00,,,0.00,Wunderground v.1.15,2013-02-13 21:26:00,
2013-02-13 15:28:00,64.2,26.6,29.96,NW,304,3.0,7.0,24,0.00,,,0.00,Wunderground v.1.15,2013-02-13 21:28:00,
2013-02-13 15:31:00,64.3,26.7,29.95,NW,304,3.0,3.0,24,0.00,,,0.00,Wunderground v.1.15,2013-02-13 21:31:00,
2013-02-13 15:34:00,64.5,25.8,29.95,NNW,329,3.0,6.0,23,0.00,,,0.00,Wunderground v.1.15,2013-02-13 21:34:00,
2013-02-13 15:36:00,64.5,25.8,29.95,WNW,282,2.0,6.0,23,0.00,,,0.00,Wunderground v.1.15,2013-02-13 21:36:00,
2013-02-13 15:38:00,64.5,24.8,29.95,West,274,3.0,6.0,22,0.00,,,0.00,Wunderground v.1.15,2013-02-13 21:38:00,
2013-02-13 15:40:00,64.3,24.6,29.95,WNW,299,3.0,3.0,22,0.00,,,0.00,Wunderground v.1.15,2013-02-13 21:40:00,
2013-02-13 15:41:00,64.3,24.6,29.95,WNW,299,3.0,3.0,22,0.00,,,0.00,Wunderground v.1.15,2013-02-13 21:41:00,
2013-02-13 15:43:00,64.3,25.7,29.95,NNW,346,3.0,4.0,23,0.00,,,0.00,Wunderground v.1.15,2013-02-13 21:43:00,
2013-02-13 15:46:00,64.5,23.7,29.95,WNW,285,3.0,7.0,21,0.00,,,0.00,Wunderground v.1.15,2013-02-13 21:46:00,
2013-02-13 15:48:00,64.7,23.8,29.95,NW,318,3.0,7.0,21,0.00,,,0.00,Wunderground v.1.15,2013-02-13 21:48:00,
2013-02-13 15:51:00,64.5,23.7,29.95,NNE,20,3.0,7.0,21,0.00,,,0.00,Wunderground v.1.15,2013-02-13 21:51:00,
2013-02-13 15:53:00,64.5,23.7,29.95,North,350,3.0,7.0,21,0.00,,,0.00,Wunderground v.1.15,2013-02-13 21:53:00,
2013-02-13 15:54:00,64.5,23.7,29.95,North,350,3.0,7.0,21,0.00,,,0.00,Wunderground v.1.15,2013-02-13 21:54:00,
2013-02-13 15:56:00,64.5,23.7,29.95,NNW,336,3.0,7.0,21,0.00,,,0.00,Wunderground v.1.15,2013-02-13 21:56:00,
2013-02-13 15:59:00,64.3,23.5,29.95,NNW,333,3.0,7.0,21,0.00,,,0.00,Wunderground v.1.15,2013-02-13 21:59:00,
2013-02-13 16:01:00,64.2,23.4,29.95,North,352,4.0,6.0,21,0.00,,,0.00,Wunderground v.1.15,2013-02-13 22:01:00,
2013-02-13 16:03:00,64.3,23.5,29.95,NW,316,4.0,6.0,21,0.00,,,0.00,Wunderground v.1.15,2013-02-13 22:03:00,
2013-02-13 16:04:00,64.3,23.5,29.95,NW,313,4.0,6.0,21,0.00,,,0.00,Wunderground v.1.15,2013-02-13 22:04:00,
2013-02-13 16:05:00,64.3,23.5,29.95,NW,313,4.0,6.0,21,0.00,,,0.00,Wunderground v.1.15,2013-02-13 22:05:00,
2013-02-13 16:06:00,64.3,23.5,29.95,NW,313,4.0,6.0,21,0.00,,,0.00,Wunderground v.1.15,2013-02-13 22:06:00,
2013-02-13 16:09:00,64.3,23.5,29.95,NW,313,3.0,6.0,21,0.00,,,0.00,Wunderground v.1.15,2013-02-13 22:09:00,
2013-02-13 16:11:00,64.5,22.5,29.95,NW,313,2.0,2.0,20,0.00,,,0.00,Wunderground v.1.15,2013-02-13 22:11:00,
2013-02-13 16:13:00,64.7,22.7,29.95,NW,313,1.0,2.0,20,0.00,,,0.00,Wunderground v.1.15,2013-02-13 22:13:00,
2013-02-13 16:15:00,65.0,22.9,29.95,NW,305,1.0,4.0,20,0.00,,,0.00,Wunderground v.1.15,2013-02-13 22:15:00,
2013-02-13 16:18:00,65.2,24.2,29.94,NW,313,1.0,5.0,21,0.00,,,0.00,Wunderground v.1.15,2013-02-13 22:18:00,
2013-02-13 16:19:00,65.3,25.4,29.94,NW,320,2.0,5.0,22,0.00,,,0.00,Wunderground v.1.15,2013-02-13 22:19:00,
2013-02-13 16:21:00,65.3,24.3,29.94,NW,312,2.0,5.0,21,0.00,,,0.00,Wunderground v.1.15,2013-02-13 22:21:00,
2013-02-13 16:25:00,65.2,24.2,29.94,NW,312,3.0,5.0,21,0.00,,,0.00,Wunderground v.1.15,2013-02-13 22:25:00,
2013-02-13 16:26:00,65.0,22.9,29.94,NW,313,3.0,5.0,20,0.00,,,0.00,Wunderground v.1.15,2013-02-13 22:26:00,
2013-02-13 16:29:00,65.2,24.2,29.94,North,1,2.0,5.0,21,0.00,,,0.00,Wunderground v.1.15,2013-02-13 22:29:00,
2013-02-13 16:31:00,64.8,23.9,29.94,North,4,1.0,2.0,21,0.00,,,0.00,Wunderground v.1.15,2013-02-13 22:31:00,
2013-02-13 16:33:00,64.7,24.9,29.94,North,4,1.0,2.0,22,0.00,,,0.00,Wunderground v.1.15,2013-02-13 22:33:00,
2013-02-13 16:36:00,64.7,24.9,29.94,NNW,340,2.0,7.0,22,0.00,,,0.00,Wunderground v.1.15,2013-02-13 22:36:00,
2013-02-13 16:37:00,64.8,25.0,29.94,NNW,330,2.0,7.0,22,0.00,,,0.00,Wunderground v.1.15,2013-02-13 22:37:00,
2013-02-13 16:39:00,64.7,23.8,29.94,NNW,336,3.0,7.0,21,0.00,,,0.00,Wunderground v.1.15,2013-02-13 22:39:00,
2013-02-13 16:42:00,64.7,23.8,29.94,NW,323,3.0,6.0,21,0.00,,,0.00,Wunderground v.1.15,2013-02-13 22:42:00,
2013-02-13 16:43:00,64.7,23.8,29.94,North,357,4.0,8.0,21,0.00,,,0.00,Wunderground v.1.15,2013-02-13 22:43:00,
2013-02-13 16:47:00,64.5,23.7,29.94,North,350,4.0,8.0,21,0.00,,,0.00,Wunderground v.1.15,2013-02-13 22:47:00,
2013-02-13 16:48:00,64.5,23.7,29.94,North,0,4.0,8.0,21,0.00,,,0.00,Wunderground v.1.15,2013-02-13 22:48:00,
2013-02-13 16:49:00,64.5,23.7,29.94,North,359,4.0,8.0,21,0.00,,,0.00,Wunderground v.1.15,2013-02-13 22:49:00,
2013-02-13 16:53:00,64.2,23.4,29.94,North,359,3.0,4.0,21,0.00,,,0.00,Wunderground v.1.15,2013-02-13 22:53:00,
2013-02-13 16:54:00,64.2,23.4,29.94,ENE,66,3.0,4.0,21,0.00,,,0.00,Wunderground v.1.15,2013-02-13 22:54:00,
2013-02-13 16:57:00,64.2,23.4,29.94,NW,319,2.0,4.0,21,0.00,,,0.00,Wunderground v.1.15,2013-02-13 22:57:00,
2013-02-13 16:59:00,64.3,23.5,29.94,NW,315,2.0,7.0,21,0.00,,,0.00,Wunderground v.1.15,2013-02-13 22:59:00,
2013-02-13 17:01:00,64.3,23.5,29.94,NW,319,3.0,6.0,21,0.00,,,0.00,Wunderground v.1.15,2013-02-13 23:01:00,
2013-02-13 17:03:00,64.2,23.4,29.94,NNW,332,4.0,6.0,21,0.00,,,0.00,Wunderground v.1.15,2013-02-13 23:03:00,
2013-02-13 17:05:00,64.2,23.4,29.94,NW,323,4.0,6.0,21,0.00,,,0.00,Wunderground v.1.15,2013-02-13 23:05:00,
2013-02-13 17:06:00,64.2,23.4,29.94,NW,325,4.0,8.0,21,0.00,,,0.00,Wunderground v.1.15,2013-02-13 23:06:00,
2013-02-13 17:07:00,64.3,23.5,29.94,NNW,333,5.0,8.0,21,0.00,,,0.00,Wunderground v.1.15,2013-02-13 23:07:00,
2013-02-13 17:11:00,64.5,23.7,29.94,NW,315,4.0,4.0,21,0.00,,,0.00,Wunderground v.1.15,2013-02-13 23:11:00,
2013-02-13 17:13:00,64.3,23.5,29.94,North,357,4.0,5.0,21,0.00,,,0.00,Wunderground v.1.15,2013-02-13 23:13:00,
2013-02-13 17:15:00,64.3,23.5,29.94,NNW,342,4.0,5.0,21,0.00,,,0.00,Wunderground v.1.15,2013-02-13 23:15:00,
2013-02-13 17:17:00,64.3,23.5,29.94,NNW,336,3.0,5.0,21,0.00,,,0.00,Wunderground v.1.15,2013-02-13 23:17:00,
2013-02-13 17:18:00,64.5,22.5,29.94,NNW,336,3.0,5.0,20,0.00,,,0.00,Wunderground v.1.15,2013-02-13 23:18:00,
2013-02-13 17:21:00,64.5,23.7,29.94,NW,315,3.0,5.0,21,0.00,,,0.00,Wunderground v.1.15,2013-02-13 23:21:00,
2013-02-13 17:23:00,64.5,23.7,29.94,NNW,333,3.0,6.0,21,0.00,,,0.00,Wunderground v.1.15,2013-02-13 23:23:00,
2013-02-13 17:25:00,64.3,23.5,29.94,NW,320,3.0,6.0,21,0.00,,,0.00,Wunderground v.1.15,2013-02-13 23:25:00,
2013-02-13 17:26:00,64.3,23.5,29.94,North,353,3.0,6.0,21,0.00,,,0.00,Wunderground v.1.15,2013-02-13 23:26:00,
2013-02-13 17:27:00,64.3,23.5,29.94,NNW,342,4.0,6.0,21,0.00,,,0.00,Wunderground v.1.15,2013-02-13 23:27:00,
2013-02-13 17:31:00,64.2,23.4,29.94,NNW,337,4.0,4.0,21,0.00,,,0.00,Wunderground v.1.15,2013-02-13 23:31:00,
2013-02-13 17:34:00,64.2,23.4,29.94,NNW,337,3.0,4.0,21,0.00,,,0.00,Wunderground v.1.15,2013-02-13 23:34:00,
2013-02-13 17:37:00,64.2,24.5,29.94,NNW,347,2.0,4.0,22,0.00,,,0.00,Wunderground v.1.15,2013-02-13 23:37:00,
2013-02-13 17:38:00,64.0,25.4,29.94,North,353,2.0,4.0,23,0.00,,,0.00,Wunderground v.1.15,2013-02-13 23:38:00,
2013-02-13 17:39:00,64.0,25.4,29.94,North,353,2.0,4.0,23,0.00,,,0.00,Wunderground v.1.15,2013-02-13 23:39:00,
2013-02-13 17:41:00,64.0,26.4,29.94,North,353,2.0,2.0,24,0.00,,,0.00,Wunderground v.1.15,2013-02-13 23:41:00,
2013-02-13 17:44:00,63.9,26.4,29.94,North,354,3.0,3.0,24,0.00,,,0.00,Wunderground v.1.15,2013-02-13 23:44:00,
2013-02-13 17:46:00,63.5,26.0,29.94,North,354,2.0,3.0,24,0.00,,,0.00,Wunderground v.1.15,2013-02-13 23:46:00,
2013-02-13 17:48:00,63.4,25.9,29.94,North,354,2.0,3.0,24,0.00,,,0.00,Wunderground v.1.15,2013-02-13 23:48:00,
2013-02-13 17:49:00,63.4,26.9,29.94,North,354,2.0,4.0,25,0.00,,,0.00,Wunderground v.1.15,2013-02-13 23:49:00,
2013-02-13 17:51:00,63.2,26.8,29.94,NE,55,2.0,3.0,25,0.00,,,0.00,Wunderground v.1.15,2013-02-13 23:51:00,
2013-02-13 17:53:00,62.9,25.5,29.94,NE,48,2.0,3.0,24,0.00,,,0.00,Wunderground v.1.15,2013-02-13 23:53:00,
2013-02-13 17:54:00,62.7,26.3,29.94,NE,48,2.0,3.0,25,0.00,,,0.00,Wunderground v.1.15,2013-02-13 23:54:00,
2013-02-13 17:57:00,62.6,26.2,29.94,NE,48,2.0,3.0,25,0.00,,,0.00,Wunderground v.1.15,2013-02-13 23:57:00,
2013-02-13 17:59:00,62.4,26.1,29.94,NE,48,2.0,3.0,25,0.00,,,0.00,Wunderground v.1.15,2013-02-13 23:59:00,
2013-02-13 18:00:00,62.4,27.0,29.95,NE,48,2.0,2.0,26,0.00,,,0.00,Wunderground v.1.15,2013-02-14 00:00:00,
2013-02-13 18:02:00,62.3,26.9,29.95,NE,48,2.0,2.0,26,0.00,,,0.00,Wunderground v.1.15,2013-02-14 00:02:00,
2013-02-13 18:06:00,62.1,26.8,29.95,NE,48,2.0,3.0,26,0.00,,,0.00,Wunderground v.1.15,2013-02-14 00:06:00,
2013-02-13 18:07:00,62.1,26.8,29.95,NE,48,2.0,3.0,26,0.00,,,0.00,Wunderground v.1.15,2013-02-14 00:07:00,
2013-02-13 18:11:00,61.8,27.4,29.95,NE,48,2.0,2.0,27,0.00,,,0.00,Wunderground v.1.15,2013-02-14 00:11:00,
2013-02-13 18:12:00,61.8,27.4,29.95,NE,48,2.0,2.0,27,0.00,,,0.00,Wunderground v.1.15,2013-02-14 00:12:00,
2013-02-13 18:14:00,61.6,27.3,29.95,NE,48,2.0,2.0,27,0.00,,,0.00,Wunderground v.1.15,2013-02-14 00:14:00,
2013-02-13 18:15:00,61.6,27.3,29.95,NE,48,2.0,2.0,27,0.00,,,0.00,Wunderground v.1.15,2013-02-14 00:15:00,
2013-02-13 18:17:00,61.5,27.2,29.96,NE,48,1.0,2.0,27,0.00,,,0.00,Wunderground v.1.15,2013-02-14 00:17:00,
2013-02-13 18:18:00,61.3,27.9,29.96,NE,48,1.0,2.0,28,0.00,,,0.00,Wunderground v.1.15,2013-02-14 00:18:00,
2013-02-13 18:21:00,61.0,26.7,29.96,NE,48,1.0,1.0,27,0.00,,,0.00,Wunderground v.1.15,2013-02-14 00:21:00,
2013-02-13 18:22:00,60.9,27.5,29.96,NE,48,1.0,1.0,28,0.00,,,0.00,Wunderground v.1.15,2013-02-14 00:22:00,
2013-02-13 18:23:00,60.7,27.4,29.96,NE,48,1.0,1.0,28,0.00,,,0.00,Wunderground v.1.15,2013-02-14 00:23:00,
2013-02-13 18:28:00,60.1,27.7,29.96,NE,48,1.0,2.0,29,0.00,,,0.00,Wunderground v.1.15,2013-02-14 00:28:00,
2013-02-13 18:29:00,59.9,28.4,29.96,NE,48,1.0,2.0,30,0.00,,,0.00,Wunderground v.1.15,2013-02-14 00:29:00,
2013-02-13 18:31:00,59.6,28.1,29.96,NE,48,1.0,2.0,30,0.00,,,0.00,Wunderground v.1.15,2013-02-14 00:31:00,
2013-02-13 18:35:00,58.9,28.3,29.96,NE,48,1.0,2.0,31,0.00,,,0.00,Wunderground v.1.15,2013-02-14 00:35:00,
2013-02-13 18:37:00,58.7,28.9,29.96,NE,48,1.0,2.0,32,0.00,,,0.00,Wunderground v.1.15,2013-02-14 00:37:00,
2013-02-13 18:39:00,58.4,28.6,29.96,NE,48,1.0,2.0,32,0.00,,,0.00,Wunderground v.1.15,2013-02-14 00:39:00,
2013-02-13 18:44:00,58.0,29.0,29.96,NE,48,1.0,2.0,33,0.00,,,0.00,Wunderground v.1.15,2013-02-14 00:44:00,
2013-02-13 18:47:00,57.6,29.4,29.96,NE,48,1.0,2.0,34,0.00,,,0.00,Wunderground v.1.15,2013-02-14 00:47:00,
2013-02-13 18:49:00,57.5,29.3,29.96,NE,48,1.0,2.0,34,0.00,,,0.00,Wunderground v.1.15,2013-02-14 00:49:00,
2013-02-13 18:52:00,57.2,29.1,29.96,NE,48,1.0,1.0,34,0.00,,,0.00,Wunderground v.1.15,2013-02-14 00:52:00,
2013-02-13 18:54:00,57.2,29.8,29.96,NE,48,0.0,1.0,35,0.00,,,0.00,Wunderground v.1.15,2013-02-14 00:54:00,
2013-02-13 18:55:00,57.0,29.6,29.96,NE,48,0.0,1.0,35,0.00,,,0.00,Wunderground v.1.15,2013-02-14 00:55:00,
2013-02-13 18:58:00,56.9,29.5,29.96,NE,48,0.0,1.0,35,0.00,,,0.00,Wunderground v.1.15,2013-02-14 00:58:00,
2013-02-13 19:01:00,56.9,29.5,29.97,NE,48,0.0,0.0,35,0.00,,,0.00,Wunderground v.1.15,2013-02-14 01:01:00,
2013-02-13 19:03:00,56.7,29.3,29.97,NE,48,0.0,0.0,35,0.00,,,0.00,Wunderground v.1.15,2013-02-14 01:03:00,
2013-02-13 19:08:00,56.5,29.8,29.97,NE,48,0.0,0.0,36,0.00,,,0.00,Wunderground v.1.15,2013-02-14 01:08:00,
2013-02-13 19:09:00,56.5,29.8,29.97,NE,48,0.0,0.0,36,0.00,,,0.00,Wunderground v.1.15,2013-02-14 01:09:00,
2013-02-13 19:14:00,56.2,29.6,29.97,NE,48,0.0,2.0,36,0.00,,,0.00,Wunderground v.1.15,2013-02-14 01:14:00,
2013-02-13 19:15:00,56.2,29.6,29.97,NE,48,0.0,2.0,36,0.00,,,0.00,Wunderground v.1.15,2013-02-14 01:15:00,
2013-02-13 19:21:00,55.7,29.1,29.97,NE,48,1.0,1.0,36,0.00,,,0.00,Wunderground v.1.15,2013-02-14 01:21:00,
2013-02-13 19:22:00,55.7,29.1,29.97,NE,48,1.0,1.0,36,0.00,,,0.00,Wunderground v.1.15,2013-02-14 01:22:00,
2013-02-13 19:24:00,55.6,29.0,29.97,NE,48,1.0,1.0,36,0.00,,,0.00,Wunderground v.1.15,2013-02-14 01:24:00,
2013-02-13 19:26:00,55.6,29.0,29.97,NE,48,1.0,1.0,36,0.00,,,0.00,Wunderground v.1.15,2013-02-14 01:26:00,
2013-02-13 19:27:00,55.4,28.9,29.97,NE,48,1.0,1.0,36,0.00,,,0.00,Wunderground v.1.15,2013-02-14 01:27:00,
2013-02-13 19:29:00,55.4,28.9,29.97,NE,48,0.0,1.0,36,0.00,,,0.00,Wunderground v.1.15,2013-02-14 01:29:00,
2013-02-13 19:31:00,55.3,29.4,29.98,NE,48,0.0,0.0,37,0.00,,,0.00,Wunderground v.1.15,2013-02-14 01:31:00,
2013-02-13 19:32:00,55.3,29.4,29.98,NE,48,0.0,0.0,37,0.00,,,0.00,Wunderground v.1.15,2013-02-14 01:32:00,
2013-02-13 19:34:00,55.1,29.3,29.98,NE,48,0.0,0.0,37,0.00,,,0.00,Wunderground v.1.15,2013-02-14 01:34:00,
2013-02-13 19:36:00,55.0,29.2,29.98,NE,48,0.0,0.0,37,0.00,,,0.00,Wunderground v.1.15,2013-02-14 01:36:00,
2013-02-13 19:37:00,55.0,29.2,29.98,NE,48,0.0,0.0,37,0.00,,,0.00,Wunderground v.1.15,2013-02-14 01:37:00,
2013-02-13 19:41:00,54.7,29.6,29.98,NE,48,0.0,0.0,38,0.00,,,0.00,Wunderground v.1.15,2013-02-14 01:41:00,
2013-02-13 19:43:00,54.5,29.4,29.98,NE,48,0.0,0.0,38,0.00,,,0.00,Wunderground v.1.15,2013-02-14 01:43:00,
2013-02-13 19:45:00,54.4,29.3,29.98,NE,48,0.0,0.0,38,0.00,,,0.00,Wunderground v.1.15,2013-02-14 01:45:00,
2013-02-13 19:46:00,54.4,29.3,29.99,NE,48,0.0,0.0,38,0.00,,,0.00,Wunderground v.1.15,2013-02-14 01:46:00,
2013-02-13 19:48:00,54.2,29.8,29.99,NE,48,0.0,0.0,39,0.00,,,0.00,Wunderground v.1.15,2013-02-14 01:48:00,
2013-02-13 19:49:00,54.1,29.7,29.99,NE,48,0.0,0.0,39,0.00,,,0.00,Wunderground v.1.15,2013-02-14 01:49:00,
2013-02-13 19:51:00,54.1,29.7,29.99,NE,48,0.0,0.0,39,0.00,,,0.00,Wunderground v.1.15,2013-02-14 01:51:00,
2013-02-13 19:53:00,53.9,29.5,29.99,NE,48,0.0,0.0,39,0.00,,,0.00,Wunderground v.1.15,2013-02-14 01:53:00,
2013-02-13 19:54:00,53.8,29.4,29.99,NE,48,0.0,0.0,39,0.00,,,0.00,Wunderground v.1.15,2013-02-14 01:54:00,
2013-02-13 19:55:00,53.8,29.4,29.99,NE,48,0.0,0.0,39,0.00,,,0.00,Wunderground v.1.15,2013-02-14 01:55:00,
2013-02-13 19:58:00,53.6,29.8,29.99,NE,48,0.0,0.0,40,0.00,,,0.00,Wunderground v.1.15,2013-02-14 01:58:00,
2013-02-13 19:59:00,53.5,29.7,29.99,NE,48,0.0,0.0,40,0.00,,,0.00,Wunderground v.1.15,2013-02-14 01:59:00,
2013-02-13 20:01:00,53.5,29.7,29.99,NE,48,0.0,0.0,40,0.00,,,0.00,Wunderground v.1.15,2013-02-14 02:01:00,
2013-02-13 20:06:00,53.1,30.0,29.99,NE,48,0.0,0.0,41,0.00,,,0.00,Wunderground v.1.15,2013-02-14 02:06:00,
2013-02-13 20:07:00,53.1,30.6,29.99,NE,48,0.0,0.0,42,0.00,,,0.00,Wunderground v.1.15,2013-02-14 02:07:00,
2013-02-13 20:08:00,52.9,31.0,29.99,NE,48,0.0,0.0,43,0.00,,,0.00,Wunderground v.1.15,2013-02-14 02:08:00,
2013-02-13 20:11:00,52.8,30.9,29.99,NE,48,0.0,0.0,43,0.00,,,0.00,Wunderground v.1.15,2013-02-14 02:11:00,
2013-02-13 20:14:00,52.5,30.6,29.99,NE,48,0.0,0.0,43,0.00,,,0.00,Wunderground v.1.15,2013-02-14 02:14:00,
2013-02-13 20:15:00,52.3,30.4,29.99,NE,48,0.0,0.0,43,0.00,,,0.00,Wunderground v.1.15,2013-02-14 02:15:00,
2013-02-13 20:17:00,52.2,30.9,30.00,NE,48,0.0,0.0,44,0.00,,,0.00,Wunderground v.1.15,2013-02-14 02:17:00,
2013-02-13 20:18:00,52.2,30.9,30.00,NE,48,0.0,0.0,44,0.00,,,0.00,Wunderground v.1.15,2013-02-14 02:18:00,
2013-02-13 20:22:00,51.9,30.6,30.00,NE,48,0.0,0.0,44,0.00,,,0.00,Wunderground v.1.15,2013-02-14 02:22:00,
2013-02-13 20:24:00,51.7,29.9,30.00,NE,48,0.0,0.0,43,0.00,,,0.00,Wunderground v.1.15,2013-02-14 02:24:00,
2013-02-13 20:26:00,51.7,29.9,30.00,NE,48,0.0,0.0,43,0.00,,,0.00,Wunderground v.1.15,2013-02-14 02:26:00,
2013-02-13 20:27:00,51.6,29.8,30.00,NE,48,0.0,0.0,43,0.00,,,0.00,Wunderground v.1.15,2013-02-14 02:27:00,
2013-02-13 20:29:00,51.6,30.4,30.00,NE,48,0.0,0.0,44,0.00,,,0.00,Wunderground v.1.15,2013-02-14 02:29:00,
2013-02-13 20:32:00,51.4,30.2,30.00,NE,48,0.0,0.0,44,0.00,,,0.00,Wunderground v.1.15,2013-02-14 02:32:00,
2013-02-13 20:33:00,51.4,30.2,30.00,NE,48,0.0,0.0,44,0.00,,,0.00,Wunderground v.1.15,2013-02-14 02:33:00,
2013-02-13 20:37:00,51.3,30.7,30.00,NE,48,0.0,0.0,45,0.00,,,0.00,Wunderground v.1.15,2013-02-14 02:37:00,
2013-02-13 20:38:00,51.1,31.0,30.00,NE,48,0.0,0.0,46,0.00,,,0.00,Wunderground v.1.15,2013-02-14 02:38:00,
2013-02-13 20:39:00,51.1,31.0,30.00,NE,48,0.0,0.0,46,0.00,,,0.00,Wunderground v.1.15,2013-02-14 02:39:00,
2013-02-13 20:44:00,50.7,31.2,30.00,NE,48,0.0,0.0,47,0.00,,,0.00,Wunderground v.1.15,2013-02-14 02:44:00,
2013-02-13 20:45:00,50.7,31.2,30.00,NE,48,0.0,0.0,47,0.00,,,0.00,Wunderground v.1.15,2013-02-14 02:45:00,
2013-02-13 20:46:00,50.5,31.0,30.00,NE,48,0.0,0.0,47,0.00,,,0.00,Wunderground v.1.15,2013-02-14 02:46:00,
2013-02-13 20:47:00,50.5,31.0,30.00,NE,48,0.0,0.0,47,0.00,,,0.00,Wunderground v.1.15,2013-02-14 02:47:00,
2013-02-13 20:49:00,50.4,30.9,30.00,NE,48,0.0,0.0,47,0.00,,,0.00,Wunderground v.1.15,2013-02-14 02:49:00,
2013-02-13 20:51:00,50.2,30.7,30.00,NE,48,0.0,0.0,47,0.00,,,0.00,Wunderground v.1.15,2013-02-14 02:51:00,
2013-02-13 20:53:00,50.2,30.2,30.00,NE,48,0.0,0.0,46,0.00,,,0.00,Wunderground v.1.15,2013-02-14 02:53:00,
2013-02-13 20:54:00,50.2,30.2,30.00,NE,48,0.0,0.0,46,0.00,,,0.00,Wunderground v.1.15,2013-02-14 02:54:00,
2013-02-13 20:59:00,50.4,29.8,30.00,NE,48,0.0,0.0,45,0.00,,,0.00,Wunderground v.1.15,2013-02-14 02:59:00,
2013-02-13 21:00:00,50.4,29.8,30.01,NE,48,0.0,0.0,45,0.00,,,0.00,Wunderground v.1.15,2013-02-14 03:00:00,
2013-02-13 21:01:00,50.4,29.8,30.01,NE,48,0.0,0.0,45,0.00,,,0.00,Wunderground v.1.15,2013-02-14 03:01:00,
2013-02-13 21:05:00,50.5,29.4,30.01,NE,48,0.0,1.0,44,0.00,,,0.00,Wunderground v.1.15,2013-02-14 03:05:00,
2013-02-13 21:07:00,50.5,29.4,30.01,NE,48,0.0,1.0,44,0.00,,,0.00,Wunderground v.1.15,2013-02-14 03:07:00,
2013-02-13 21:08:00,50.7,29.6,30.01,NE,48,0.0,1.0,44,0.00,,,0.00,Wunderground v.1.15,2013-02-14 03:08:00,
2013-02-13 21:09:00,50.7,29.0,30.01,NE,48,0.0,2.0,43,0.00,,,0.00,Wunderground v.1.15,2013-02-14 03:09:00,
2013-02-13 21:12:00,50.8,29.1,30.01,NE,48,1.0,1.0,43,0.00,,,0.00,Wunderground v.1.15,2013-02-14 03:12:00,
2013-02-13 21:14:00,51.0,29.3,30.01,NE,48,1.0,1.0,43,0.00,,,0.00,Wunderground v.1.15,2013-02-14 03:14:00,
2013-02-13 21:15:00,51.0,29.3,30.01,NE,48,1.0,1.0,43,0.00,,,0.00,Wunderground v.1.15,2013-02-14 03:15:00,
2013-02-13 21:17:00,51.0,29.3,30.00,NE,48,1.0,1.0,43,0.00,,,0.00,Wunderground v.1.15,2013-02-14 03:17:00,
2013-02-13 21:19:00,51.0,28.7,30.00,NE,48,1.0,1.0,42,0.00,,,0.00,Wunderground v.1.15,2013-02-14 03:19:00,
2013-02-13 21:20:00,51.1,28.8,30.00,NE,48,1.0,1.0,42,0.00,,,0.00,Wunderground v.1.15,2013-02-14 03:20:00,
2013-02-13 21:22:00,51.1,28.8,30.00,NE,48,1.0,1.0,42,0.00,,,0.00,Wunderground v.1.15,2013-02-14 03:22:00,
2013-02-13 21:25:00,51.1,28.8,30.00,NE,48,1.0,1.0,42,0.00,,,0.00,Wunderground v.1.15,2013-02-14 03:25:00,
2013-02-13 21:28:00,51.1,28.8,30.00,NE,48,0.0,1.0,42,0.00,,,0.00,Wunderground v.1.15,2013-02-14 03:28:00,
2013-02-13 21:30:00,51.1,28.8,30.01,NE,48,0.0,0.0,42,0.00,,,0.00,Wunderground v.1.15,2013-02-14 03:30:00,
2013-02-13 21:31:00,51.1,28.8,30.01,NE,48,0.0,0.0,42,0.00,,,0.00,Wunderground v.1.15,2013-02-14 03:31:00,
2013-02-13 21:32:00,51.0,28.7,30.01,NE,48,0.0,0.0,42,0.00,,,0.00,Wunderground v.1.15,2013-02-14 03:32:00,
2013-02-13 21:33:00,51.0,28.7,30.01,NE,48,0.0,2.0,42,0.00,,,0.00,Wunderground v.1.15,2013-02-14 03:33:00,
2013-02-13 21:37:00,51.0,29.3,30.01,NE,48,0.0,2.0,43,0.00,,,0.00,Wunderground v.1.15,2013-02-14 03:37:00,
2013-02-13 21:38:00,50.8,29.1,30.01,NE,48,1.0,2.0,43,0.00,,,0.00,Wunderground v.1.15,2013-02-14 03:38:00,
2013-02-13 21:40:00,50.8,29.1,30.01,NE,48,1.0,1.0,43,0.00,,,0.00,Wunderground v.1.15,2013-02-14 03:40:00,
2013-02-13 21:41:00,50.8,29.1,30.01,NE,48,1.0,1.0,43,0.00,,,0.00,Wunderground v.1.15,2013-02-14 03:41:00,
2013-02-13 21:44:00,50.7,29.0,30.01,NE,48,1.0,2.0,43,0.00,,,0.00,Wunderground v.1.15,2013-02-14 03:44:00,
2013-02-13 21:47:00,50.4,29.3,30.01,NE,48,1.0,2.0,44,0.00,,,0.00,Wunderground v.1.15,2013-02-14 03:47:00,
2013-02-13 21:48:00,50.4,29.3,30.01,NE,48,1.0,2.0,44,0.00,,,0.00,Wunderground v.1.15,2013-02-14 03:48:00,
2013-02-13 21:49:00,50.4,29.3,30.01,NE,48,0.0,2.0,44,0.00,,,0.00,Wunderground v.1.15,2013-02-14 03:49:00,
2013-02-13 21:50:00,50.2,29.1,30.01,NE,48,1.0,1.0,44,0.00,,,0.00,Wunderground v.1.15,2013-02-14 03:50:00,
2013-02-13 21:54:00,49.9,29.4,30.01,NE,48,1.0,1.0,45,0.00,,,0.00,Wunderground v.1.15,2013-02-14 03:54:00,
2013-02-13 21:57:00,49.8,29.3,30.01,NE,48,1.0,2.0,45,0.00,,,0.00,Wunderground v.1.15,2013-02-14 03:57:00,
2013-02-13 22:00:00,49.6,29.1,30.03,NE,48,1.0,2.0,45,0.00,,,0.00,Wunderground v.1.15,2013-02-14 04:00:00,
2013-02-13 22:01:00,49.6,29.1,30.03,NE,48,1.0,2.0,45,0.00,,,0.00,Wunderground v.1.15,2013-02-14 04:01:00,
2013-02-13 22:02:00,49.6,29.1,30.03,NE,48,1.0,2.0,45,0.00,,,0.00,Wunderground v.1.15,2013-02-14 04:02:00,
2013-02-13 22:05:00,49.5,29.0,30.03,NE,48,1.0,2.0,45,0.00,,,0.00,Wunderground v.1.15,2013-02-14 04:05:00,
2013-02-13 22:08:00,49.4,28.9,30.03,NE,48,1.0,2.0,45,0.00,,,0.00,Wunderground v.1.15,2013-02-14 04:08:00,
2013-02-13 22:10:00,49.1,29.2,30.03,NE,48,1.0,1.0,46,0.00,,,0.00,Wunderground v.1.15,2013-02-14 04:10:00,
2013-02-13 22:11:00,49.1,29.2,30.03,NE,48,1.0,1.0,46,0.00,,,0.00,Wunderground v.1.15,2013-02-14 04:11:00,
2013-02-13 22:15:00,48.9,28.5,30.03,NE,48,1.0,2.0,45,0.00,,,0.00,Wunderground v.1.15,2013-02-14 04:15:00,
2013-02-13 22:16:00,48.9,29.0,30.02,NE,48,1.0,2.0,46,0.00,,,0.00,Wunderground v.1.15,2013-02-14 04:16:00,
2013-02-13 22:17:00,48.8,28.4,30.02,NE,48,1.0,3.0,45,0.00,,,0.00,Wunderground v.1.15,2013-02-14 04:17:00,
2013-02-13 22:19:00,48.8,28.9,30.02,NE,48,1.0,3.0,46,0.00,,,0.00,Wunderground v.1.15,2013-02-14 04:19:00,
2013-02-13 22:21:00,48.8,28.9,30.02,NE,48,1.0,2.0,46,0.00,,,0.00,Wunderground v.1.15,2013-02-14 04:21:00,
2013-02-13 22:23:00,48.6,28.7,30.02,NE,48,1.0,2.0,46,0.00,,,0.00,Wunderground v.1.15,2013-02-14 04:23:00,
2013-02-13 22:26:00,48.5,28.6,30.02,NE,48,2.0,2.0,46,0.00,,,0.00,Wunderground v.1.15,2013-02-14 04:26:00,
2013-02-13 22:27:00,48.5,28.6,30.02,NE,48,2.0,3.0,46,0.00,,,0.00,Wunderground v.1.15,2013-02-14 04:27:00,
2013-02-13 22:28:00,48.5,28.6,30.02,NE,48,2.0,3.0,46,0.00,,,0.00,Wunderground v.1.15,2013-02-14 04:28:00,
2013-02-13 22:29:00,48.3,29.0,30.02,NE,48,2.0,3.0,47,0.00,,,0.00,Wunderground v.1.15,2013-02-14 04:29:00,
2013-02-13 22:34:00,48.2,28.9,30.03,NE,48,2.0,2.0,47,0.00,,,0.00,Wunderground v.1.15,2013-02-14 04:34:00,
2013-02-13 22:35:00,48.0,28.7,30.03,NE,48,2.0,2.0,47,0.00,,,0.00,Wunderground v.1.15,2013-02-14 04:35:00,
2013-02-13 22:36:00,48.0,28.7,30.03,NE,48,2.0,2.0,47,0.00,,,0.00,Wunderground v.1.15,2013-02-14 04:36:00,
2013-02-13 22:38:00,48.0,28.7,30.03,NE,48,2.0,2.0,47,0.00,,,0.00,Wunderground v.1.15,2013-02-14 04:38:00,
2013-02-13 22:41:00,48.0,29.2,30.03,NE,48,2.0,3.0,48,0.00,,,0.00,Wunderground v.1.15,2013-02-14 04:41:00,
2013-02-13 22:44:00,48.0,29.2,30.03,NE,48,2.0,3.0,48,0.00,,,0.00,Wunderground v.1.15,2013-02-14 04:44:00,
2013-02-13 22:45:00,48.0,29.2,30.03,NE,48,2.0,4.0,48,0.00,,,0.00,Wunderground v.1.15,2013-02-14 04:45:00,
2013-02-13 22:49:00,48.0,28.7,30.03,NE,48,2.0,4.0,47,0.00,,,0.00,Wunderground v.1.15,2013-02-14 04:49:00,
2013-02-13 22:51:00,48.0,28.7,30.03,NE,48,2.0,2.0,47,0.00,,,0.00,Wunderground v.1.15,2013-02-14 04:51:00,
2013-02-13 22:52:00,48.0,29.2,30.03,NE,48,2.0,2.0,48,0.00,,,0.00,Wunderground v.1.15,2013-02-14 04:52:00,
2013-02-13 22:54:00,48.0,29.2,30.03,NE,48,2.0,2.0,48,0.00,,,0.00,Wunderground v.1.15,2013-02-14 04:54:00,
2013-02-13 22:58:00,47.9,29.1,30.03,NE,48,1.0,2.0,48,0.00,,,0.00,Wunderground v.1.15,2013-02-14 04:58:00,
2013-02-13 22:59:00,47.9,29.1,30.03,NE,48,1.0,2.0,48,0.00,,,0.00,Wunderground v.1.15,2013-02-14 04:59:00,
2013-02-13 23:01:00,47.9,29.1,30.04,NE,48,1.0,1.0,48,0.00,,,0.00,Wunderground v.1.15,2013-02-14 05:01:00,
2013-02-13 23:02:00,47.9,29.1,30.04,NE,48,1.0,2.0,48,0.00,,,0.00,Wunderground v.1.15,2013-02-14 05:02:00,
2013-02-13 23:03:00,47.9,29.1,30.04,NE,48,1.0,2.0,48,0.00,,,0.00,Wunderground v.1.15,2013-02-14 05:03:00,
2013-02-13 23:08:00,47.9,29.1,30.04,NE,48,1.0,2.0,48,0.00,,,0.00,Wunderground v.1.15,2013-02-14 05:08:00,
2013-02-13 23:10:00,47.9,29.6,30.04,NE,48,1.0,2.0,49,0.00,,,0.00,Wunderground v.1.15,2013-02-14 05:10:00,
2013-02-13 23:11:00,47.9,29.6,30.04,NE,48,1.0,2.0,49,0.00,,,0.00,Wunderground v.1.15,2013-02-14 05:11:00,
2013-02-13 23:12:00,47.9,29.6,30.04,NE,48,1.0,2.0,49,0.00,,,0.00,Wunderground v.1.15,2013-02-14 05:12:00,
2013-02-13 23:16:00,47.9,29.6,30.03,NE,48,2.0,2.0,49,0.00,,,0.00,Wunderground v.1.15,2013-02-14 05:16:00,
2013-02-13 23:18:00,47.7,29.5,30.03,NE,48,2.0,2.0,49,0.00,,,0.00,Wunderground v.1.15,2013-02-14 05:18:00,
2013-02-13 23:19:00,47.7,29.5,30.03,NE,48,2.0,2.0,49,0.00,,,0.00,Wunderground v.1.15,2013-02-14 05:19:00,
2013-02-13 23:20:00,47.7,29.5,30.03,NE,48,2.0,2.0,49,0.00,,,0.00,Wunderground v.1.15,2013-02-14 05:20:00,
2013-02-13 23:25:00,47.6,29.9,30.03,NE,48,1.0,2.0,50,0.00,,,0.00,Wunderground v.1.15,2013-02-14 05:25:00,
2013-02-13 23:26:00,47.6,29.9,30.03,NE,48,1.0,2.0,50,0.00,,,0.00,Wunderground v.1.15,2013-02-14 05:26:00,
2013-02-13 23:28:00,47.4,30.2,30.03,NE,48,1.0,2.0,51,0.00,,,0.00,Wunderground v.1.15,2013-02-14 05:28:00,
2013-02-13 23:29:00,47.4,30.2,30.03,NE,48,1.0,2.0,51,0.00,,,0.00,Wunderground v.1.15,2013-02-14 05:29:00,
2013-02-13 23:30:00,47.4,30.2,30.03,NE,48,1.0,2.0,51,0.00,,,0.00,Wunderground v.1.15,2013-02-14 05:30:00,
2013-02-13 23:33:00,47.4,30.2,30.03,NE,48,1.0,2.0,51,0.00,,,0.00,Wunderground v.1.15,2013-02-14 05:33:00,
2013-02-13 23:37:00,47.3,30.5,30.03,NE,48,1.0,2.0,52,0.00,,,0.00,Wunderground v.1.15,2013-02-14 05:37:00,
2013-02-13 23:39:00,47.3,30.5,30.03,NE,48,1.0,2.0,52,0.00,,,0.00,Wunderground v.1.15,2013-02-14 05:39:00,
2013-02-13 23:40:00,47.3,30.5,30.03,NE,48,1.0,2.0,52,0.00,,,0.00,Wunderground v.1.15,2013-02-14 05:40:00,
2013-02-13 23:41:00,47.3,30.5,30.03,NE,48,1.0,1.0,52,0.00,,,0.00,Wunderground v.1.15,2013-02-14 05:41:00,
2013-02-13 23:44:00,47.1,30.4,30.03,NE,48,1.0,2.0,52,0.00,,,0.00,Wunderground v.1.15,2013-02-14 05:44:00,
2013-02-13 23:45:00,47.1,30.4,30.03,NE,48,1.0,2.0,52,0.00,,,0.00,Wunderground v.1.15,2013-02-14 05:45:00,
2013-02-13 23:46:00,47.1,30.4,30.03,NE,48,1.0,2.0,52,0.00,,,0.00,Wunderground v.1.15,2013-02-14 05:46:00,
2013-02-13 23:48:00,47.1,30.4,30.03,NE,48,1.0,2.0,52,0.00,,,0.00,Wunderground v.1.15,2013-02-14 05:48:00,
2013-02-13 23:50:00,47.0,30.7,30.03,NE,48,1.0,2.0,53,0.00,,,0.00,Wunderground v.1.15,2013-02-14 05:50:00,
2013-02-13 23:51:00,47.0,30.7,30.03,NE,48,1.0,1.0,53,0.00,,,0.00,Wunderground v.1.15,2013-02-14 05:51:00,
2013-02-13 23:53:00,47.0,30.7,30.03,NE,48,1.0,1.0,53,0.00,,,0.00,Wunderground v.1.15,2013-02-14 05:53:00,
2013-02-13 23:56:00,46.8,31.0,30.03,NE,48,1.0,2.0,54,0.00,,,0.00,Wunderground v.1.15,2013-02-14 05:56:00,
2013-02-13 23:57:00,46.8,31.0,30.03,NE,48,1.0,2.0,54,0.00,,,0.00,Wunderground v.1.15,2013-02-14 05:57:00,
2013-02-13 23:58:00,46.8,31.0,30.03,NE,48,1.0,2.0,54,0.00,,,0.00,Wunderground v.1.15,2013-02-14 05:58:00,